<?xml version="1.0" encoding="UTF-8" standalone="no" ?>
<gpx xmlns="http://www.topografix.com/GPX/1/1" xmlns:xsi="http://www.w3.org/2001/XMLSchema-instance" xsi:schemaLocation="http://www.topografix.com/GPX/1/1 http://www.topografix.com/GPX/1/1/gpx.xsd" version="1.1" creator="VisuGPX - https://www.visugpx.com">
  <metadata>
    <name>Devoluy : La joue du loup - Tête des Casses 1973m</name>
    <desc><![CDATA[Randonnée très agréable au départ de la station de la Joue du loup 1450 m dans le Devoluy.
A la montée, on suivra le GRP Tour du Devoluy. Puis ce sera le plateau d'Aurouze et le sommet de la Tête des Casses 1973m..
Retour par le sentier famille et le col de Giers ( près du Collet du Tat).
Itinéraire facile et magnifique . Beau panorama.

[url=https://bd-rando.blogspot.com/2018/08/devoluy-la-joue-du-loup-tete-des-casses.html]voir rando[/url]]]></desc>
  </metadata>
  <trk>
    <name><![CDATA[La joue du loup tete des casses]]></name>
    <trkseg>
      <trkpt lat="44.68924" lon="5.89359">
        <ele>1450.68</ele>
        <time>2018-08-10T05:55:53Z</time>
      </trkpt>
      <trkpt lat="44.68926" lon="5.89362">
        <ele>1450.65</ele>
        <time>2018-08-10T05:56:03Z</time>
      </trkpt>
      <trkpt lat="44.68929" lon="5.89371">
        <ele>1450.53</ele>
        <time>2018-08-10T05:56:09Z</time>
      </trkpt>
      <trkpt lat="44.68931" lon="5.89377">
        <ele>1450.55</ele>
        <time>2018-08-10T05:56:14Z</time>
      </trkpt>
      <trkpt lat="44.68925" lon="5.89392">
        <ele>1450.43</ele>
        <time>2018-08-10T05:56:26Z</time>
      </trkpt>
      <trkpt lat="44.68915" lon="5.89394">
        <ele>1451.33</ele>
        <time>2018-08-10T05:56:34Z</time>
      </trkpt>
      <trkpt lat="44.68897" lon="5.89397">
        <ele>1454.28</ele>
        <time>2018-08-10T05:56:51Z</time>
      </trkpt>
      <trkpt lat="44.68887" lon="5.89401">
        <ele>1455.81</ele>
        <time>2018-08-10T05:57:02Z</time>
      </trkpt>
      <trkpt lat="44.68884" lon="5.89403">
        <ele>1456.38</ele>
        <time>2018-08-10T05:57:06Z</time>
      </trkpt>
      <trkpt lat="44.68874" lon="5.89396">
        <ele>1457.89</ele>
        <time>2018-08-10T05:57:22Z</time>
      </trkpt>
      <trkpt lat="44.68857" lon="5.89393">
        <ele>1457.45</ele>
        <time>2018-08-10T05:57:39Z</time>
      </trkpt>
      <trkpt lat="44.68851" lon="5.89392">
        <ele>1457.35</ele>
        <time>2018-08-10T05:57:44Z</time>
      </trkpt>
      <trkpt lat="44.68842" lon="5.89391">
        <ele>1457.13</ele>
        <time>2018-08-10T05:57:52Z</time>
      </trkpt>
      <trkpt lat="44.6884" lon="5.89392">
        <ele>1457.12</ele>
        <time>2018-08-10T05:57:54Z</time>
      </trkpt>
      <trkpt lat="44.68837" lon="5.89391">
        <ele>1457.07</ele>
        <time>2018-08-10T05:57:58Z</time>
      </trkpt>
      <trkpt lat="44.68834" lon="5.89384">
        <ele>1456.92</ele>
        <time>2018-08-10T05:58:04Z</time>
      </trkpt>
      <trkpt lat="44.68832" lon="5.8938">
        <ele>1456.53</ele>
        <time>2018-08-10T05:58:18Z</time>
      </trkpt>
      <trkpt lat="44.68817" lon="5.89375">
        <ele>1456.38</ele>
        <time>2018-08-10T05:58:38Z</time>
      </trkpt>
      <trkpt lat="44.68815" lon="5.89374">
        <ele>1456.34</ele>
        <time>2018-08-10T05:58:40Z</time>
      </trkpt>
      <trkpt lat="44.68806" lon="5.89376">
        <ele>1456.22</ele>
        <time>2018-08-10T05:58:49Z</time>
      </trkpt>
      <trkpt lat="44.68803" lon="5.89374">
        <ele>1456.14</ele>
        <time>2018-08-10T05:58:53Z</time>
      </trkpt>
      <trkpt lat="44.68785" lon="5.89381">
        <ele>1455.93</ele>
        <time>2018-08-10T05:59:08Z</time>
      </trkpt>
      <trkpt lat="44.68775" lon="5.89392">
        <ele>1455.77</ele>
        <time>2018-08-10T05:59:20Z</time>
      </trkpt>
      <trkpt lat="44.68761" lon="5.89405">
        <ele>1456.05</ele>
        <time>2018-08-10T05:59:35Z</time>
      </trkpt>
      <trkpt lat="44.68747" lon="5.89419">
        <ele>1457.73</ele>
        <time>2018-08-10T05:59:53Z</time>
      </trkpt>
      <trkpt lat="44.68738" lon="5.89424">
        <ele>1460.89</ele>
        <time>2018-08-10T06:00:06Z</time>
      </trkpt>
      <trkpt lat="44.68727" lon="5.8943">
        <ele>1463.75</ele>
        <time>2018-08-10T06:00:22Z</time>
      </trkpt>
      <trkpt lat="44.68721" lon="5.89434">
        <ele>1466.26</ele>
        <time>2018-08-10T06:00:36Z</time>
      </trkpt>
      <trkpt lat="44.68722" lon="5.89442">
        <ele>1467.24</ele>
        <time>2018-08-10T06:01:01Z</time>
      </trkpt>
      <trkpt lat="44.68723" lon="5.89455">
        <ele>1467.71</ele>
        <time>2018-08-10T06:01:11Z</time>
      </trkpt>
      <trkpt lat="44.68723" lon="5.89465">
        <ele>1468.59</ele>
        <time>2018-08-10T06:01:19Z</time>
      </trkpt>
      <trkpt lat="44.68723" lon="5.89468">
        <ele>1468.81</ele>
        <time>2018-08-10T06:01:21Z</time>
      </trkpt>
      <trkpt lat="44.68722" lon="5.89475">
        <ele>1470.52</ele>
        <time>2018-08-10T06:01:34Z</time>
      </trkpt>
      <trkpt lat="44.68716" lon="5.89491">
        <ele>1472.31</ele>
        <time>2018-08-10T06:01:52Z</time>
      </trkpt>
      <trkpt lat="44.68711" lon="5.89503">
        <ele>1475.43</ele>
        <time>2018-08-10T06:02:07Z</time>
      </trkpt>
      <trkpt lat="44.68706" lon="5.89516">
        <ele>1478.6</ele>
        <time>2018-08-10T06:02:22Z</time>
      </trkpt>
      <trkpt lat="44.687" lon="5.89527">
        <ele>1481.7</ele>
        <time>2018-08-10T06:02:37Z</time>
      </trkpt>
      <trkpt lat="44.687" lon="5.89531">
        <ele>1483.72</ele>
        <time>2018-08-10T06:02:52Z</time>
      </trkpt>
      <trkpt lat="44.68699" lon="5.8953">
        <ele>1483.99</ele>
        <time>2018-08-10T06:03:24Z</time>
      </trkpt>
      <trkpt lat="44.68688" lon="5.89536">
        <ele>1484.31</ele>
        <time>2018-08-10T06:03:49Z</time>
      </trkpt>
      <trkpt lat="44.6868" lon="5.89538">
        <ele>1485.72</ele>
        <time>2018-08-10T06:04:01Z</time>
      </trkpt>
      <trkpt lat="44.6867" lon="5.89537">
        <ele>1487.9</ele>
        <time>2018-08-10T06:04:17Z</time>
      </trkpt>
      <trkpt lat="44.68663" lon="5.89537">
        <ele>1488.6</ele>
        <time>2018-08-10T06:04:26Z</time>
      </trkpt>
      <trkpt lat="44.68652" lon="5.89533">
        <ele>1490.15</ele>
        <time>2018-08-10T06:04:40Z</time>
      </trkpt>
      <trkpt lat="44.68643" lon="5.89529">
        <ele>1492.67</ele>
        <time>2018-08-10T06:04:59Z</time>
      </trkpt>
      <trkpt lat="44.68639" lon="5.89528">
        <ele>1492.99</ele>
        <time>2018-08-10T06:05:05Z</time>
      </trkpt>
      <trkpt lat="44.68625" lon="5.89519">
        <ele>1493.75</ele>
        <time>2018-08-10T06:05:22Z</time>
      </trkpt>
      <trkpt lat="44.68618" lon="5.89514">
        <ele>1494.59</ele>
        <time>2018-08-10T06:05:30Z</time>
      </trkpt>
      <trkpt lat="44.68614" lon="5.8951">
        <ele>1495.09</ele>
        <time>2018-08-10T06:05:35Z</time>
      </trkpt>
      <trkpt lat="44.68612" lon="5.89507">
        <ele>1495.71</ele>
        <time>2018-08-10T06:05:39Z</time>
      </trkpt>
      <trkpt lat="44.68602" lon="5.89497">
        <ele>1497.74</ele>
        <time>2018-08-10T06:05:53Z</time>
      </trkpt>
      <trkpt lat="44.68592" lon="5.89491">
        <ele>1499.62</ele>
        <time>2018-08-10T06:06:06Z</time>
      </trkpt>
      <trkpt lat="44.68582" lon="5.89481">
        <ele>1502.65</ele>
        <time>2018-08-10T06:06:23Z</time>
      </trkpt>
      <trkpt lat="44.68573" lon="5.89475">
        <ele>1505.8</ele>
        <time>2018-08-10T06:06:39Z</time>
      </trkpt>
      <trkpt lat="44.6857" lon="5.89468">
        <ele>1506.9</ele>
        <time>2018-08-10T06:07:23Z</time>
      </trkpt>
      <trkpt lat="44.68561" lon="5.89463">
        <ele>1507.23</ele>
        <time>2018-08-10T06:07:34Z</time>
      </trkpt>
      <trkpt lat="44.68554" lon="5.89452">
        <ele>1508.52</ele>
        <time>2018-08-10T06:07:46Z</time>
      </trkpt>
      <trkpt lat="44.68549" lon="5.89436">
        <ele>1510.24</ele>
        <time>2018-08-10T06:08:01Z</time>
      </trkpt>
      <trkpt lat="44.68547" lon="5.89432">
        <ele>1510.36</ele>
        <time>2018-08-10T06:08:05Z</time>
      </trkpt>
      <trkpt lat="44.68543" lon="5.89425">
        <ele>1511.25</ele>
        <time>2018-08-10T06:08:12Z</time>
      </trkpt>
      <trkpt lat="44.68542" lon="5.89423">
        <ele>1511.37</ele>
        <time>2018-08-10T06:08:14Z</time>
      </trkpt>
      <trkpt lat="44.68537" lon="5.89414">
        <ele>1512.65</ele>
        <time>2018-08-10T06:08:25Z</time>
      </trkpt>
      <trkpt lat="44.68536" lon="5.89413">
        <ele>1512.71</ele>
        <time>2018-08-10T06:08:26Z</time>
      </trkpt>
      <trkpt lat="44.68535" lon="5.8941">
        <ele>1513.17</ele>
        <time>2018-08-10T06:08:29Z</time>
      </trkpt>
      <trkpt lat="44.68524" lon="5.89405">
        <ele>1514.86</ele>
        <time>2018-08-10T06:08:43Z</time>
      </trkpt>
      <trkpt lat="44.68513" lon="5.89401">
        <ele>1516.76</ele>
        <time>2018-08-10T06:08:57Z</time>
      </trkpt>
      <trkpt lat="44.68508" lon="5.89398">
        <ele>1517.79</ele>
        <time>2018-08-10T06:09:03Z</time>
      </trkpt>
      <trkpt lat="44.68504" lon="5.89396">
        <ele>1519.4</ele>
        <time>2018-08-10T06:09:15Z</time>
      </trkpt>
      <trkpt lat="44.68502" lon="5.89394">
        <ele>1520.49</ele>
        <time>2018-08-10T06:09:32Z</time>
      </trkpt>
      <trkpt lat="44.6849" lon="5.89393">
        <ele>1520.57</ele>
        <time>2018-08-10T06:09:43Z</time>
      </trkpt>
      <trkpt lat="44.68483" lon="5.89389">
        <ele>1521.77</ele>
        <time>2018-08-10T06:09:55Z</time>
      </trkpt>
      <trkpt lat="44.68474" lon="5.89395">
        <ele>1523.64</ele>
        <time>2018-08-10T06:10:08Z</time>
      </trkpt>
      <trkpt lat="44.68475" lon="5.89407">
        <ele>1525.37</ele>
        <time>2018-08-10T06:10:20Z</time>
      </trkpt>
      <trkpt lat="44.68476" lon="5.89411">
        <ele>1526.39</ele>
        <time>2018-08-10T06:10:25Z</time>
      </trkpt>
      <trkpt lat="44.68476" lon="5.89416">
        <ele>1526.92</ele>
        <time>2018-08-10T06:10:29Z</time>
      </trkpt>
      <trkpt lat="44.68477" lon="5.8942">
        <ele>1527.65</ele>
        <time>2018-08-10T06:10:33Z</time>
      </trkpt>
      <trkpt lat="44.6848" lon="5.89433">
        <ele>1529.21</ele>
        <time>2018-08-10T06:10:45Z</time>
      </trkpt>
      <trkpt lat="44.68483" lon="5.89436">
        <ele>1529.78</ele>
        <time>2018-08-10T06:10:49Z</time>
      </trkpt>
      <trkpt lat="44.68489" lon="5.8945">
        <ele>1531.44</ele>
        <time>2018-08-10T06:11:01Z</time>
      </trkpt>
      <trkpt lat="44.68494" lon="5.89466">
        <ele>1532.38</ele>
        <time>2018-08-10T06:11:15Z</time>
      </trkpt>
      <trkpt lat="44.68497" lon="5.89471">
        <ele>1532.59</ele>
        <time>2018-08-10T06:11:19Z</time>
      </trkpt>
      <trkpt lat="44.68493" lon="5.89478">
        <ele>1533</ele>
        <time>2018-08-10T06:11:24Z</time>
      </trkpt>
      <trkpt lat="44.68487" lon="5.89492">
        <ele>1534.35</ele>
        <time>2018-08-10T06:11:38Z</time>
      </trkpt>
      <trkpt lat="44.68481" lon="5.8949">
        <ele>1535.54</ele>
        <time>2018-08-10T06:11:50Z</time>
      </trkpt>
      <trkpt lat="44.68476" lon="5.89481">
        <ele>1536.89</ele>
        <time>2018-08-10T06:12:31Z</time>
      </trkpt>
      <trkpt lat="44.6847" lon="5.89474">
        <ele>1537.53</ele>
        <time>2018-08-10T06:12:46Z</time>
      </trkpt>
      <trkpt lat="44.68466" lon="5.89471">
        <ele>1537.98</ele>
        <time>2018-08-10T06:12:52Z</time>
      </trkpt>
      <trkpt lat="44.68456" lon="5.89461">
        <ele>1539.38</ele>
        <time>2018-08-10T06:13:06Z</time>
      </trkpt>
      <trkpt lat="44.68445" lon="5.89451">
        <ele>1540.54</ele>
        <time>2018-08-10T06:13:20Z</time>
      </trkpt>
      <trkpt lat="44.68436" lon="5.89442">
        <ele>1542.58</ele>
        <time>2018-08-10T06:13:34Z</time>
      </trkpt>
      <trkpt lat="44.68426" lon="5.89437">
        <ele>1543.86</ele>
        <time>2018-08-10T06:13:47Z</time>
      </trkpt>
      <trkpt lat="44.68426" lon="5.89437">
        <ele>1543.94</ele>
        <time>2018-08-10T06:13:48Z</time>
      </trkpt>
      <trkpt lat="44.68423" lon="5.89433">
        <ele>1544.33</ele>
        <time>2018-08-10T06:13:53Z</time>
      </trkpt>
      <trkpt lat="44.68421" lon="5.89431">
        <ele>1544.67</ele>
        <time>2018-08-10T06:13:55Z</time>
      </trkpt>
      <trkpt lat="44.68414" lon="5.89422">
        <ele>1545.57</ele>
        <time>2018-08-10T06:14:08Z</time>
      </trkpt>
      <trkpt lat="44.68411" lon="5.89418">
        <ele>1546.35</ele>
        <time>2018-08-10T06:14:20Z</time>
      </trkpt>
      <trkpt lat="44.68406" lon="5.89419">
        <ele>1546.4</ele>
        <time>2018-08-10T06:14:44Z</time>
      </trkpt>
      <trkpt lat="44.68406" lon="5.89418">
        <ele>1546.4</ele>
        <time>2018-08-10T06:14:46Z</time>
      </trkpt>
      <trkpt lat="44.68404" lon="5.89416">
        <ele>1546.4</ele>
        <time>2018-08-10T06:14:48Z</time>
      </trkpt>
      <trkpt lat="44.68401" lon="5.89413">
        <ele>1546.47</ele>
        <time>2018-08-10T06:14:54Z</time>
      </trkpt>
      <trkpt lat="44.68399" lon="5.89412">
        <ele>1546.55</ele>
        <time>2018-08-10T06:14:56Z</time>
      </trkpt>
      <trkpt lat="44.68392" lon="5.89404">
        <ele>1547.05</ele>
        <time>2018-08-10T06:15:07Z</time>
      </trkpt>
      <trkpt lat="44.6839" lon="5.89403">
        <ele>1547.12</ele>
        <time>2018-08-10T06:15:09Z</time>
      </trkpt>
      <trkpt lat="44.68386" lon="5.89399">
        <ele>1547.31</ele>
        <time>2018-08-10T06:15:14Z</time>
      </trkpt>
      <trkpt lat="44.68378" lon="5.89393">
        <ele>1548.02</ele>
        <time>2018-08-10T06:15:24Z</time>
      </trkpt>
      <trkpt lat="44.68377" lon="5.89392">
        <ele>1548.11</ele>
        <time>2018-08-10T06:15:26Z</time>
      </trkpt>
      <trkpt lat="44.68376" lon="5.8939">
        <ele>1548.26</ele>
        <time>2018-08-10T06:15:28Z</time>
      </trkpt>
      <trkpt lat="44.68367" lon="5.89383">
        <ele>1549.68</ele>
        <time>2018-08-10T06:15:41Z</time>
      </trkpt>
      <trkpt lat="44.68358" lon="5.89382">
        <ele>1551.28</ele>
        <time>2018-08-10T06:15:53Z</time>
      </trkpt>
      <trkpt lat="44.68352" lon="5.89381">
        <ele>1552.69</ele>
        <time>2018-08-10T06:16:07Z</time>
      </trkpt>
      <trkpt lat="44.68351" lon="5.89382">
        <ele>1552.77</ele>
        <time>2018-08-10T06:16:09Z</time>
      </trkpt>
      <trkpt lat="44.68339" lon="5.8938">
        <ele>1553.39</ele>
        <time>2018-08-10T06:16:23Z</time>
      </trkpt>
      <trkpt lat="44.68331" lon="5.89376">
        <ele>1554.65</ele>
        <time>2018-08-10T06:16:34Z</time>
      </trkpt>
      <trkpt lat="44.68318" lon="5.89376">
        <ele>1556.24</ele>
        <time>2018-08-10T06:16:48Z</time>
      </trkpt>
      <trkpt lat="44.68309" lon="5.89377">
        <ele>1557.69</ele>
        <time>2018-08-10T06:17:00Z</time>
      </trkpt>
      <trkpt lat="44.68305" lon="5.89376">
        <ele>1558.77</ele>
        <time>2018-08-10T06:17:07Z</time>
      </trkpt>
      <trkpt lat="44.68294" lon="5.89374">
        <ele>1561.02</ele>
        <time>2018-08-10T06:17:21Z</time>
      </trkpt>
      <trkpt lat="44.68285" lon="5.89373">
        <ele>1563.55</ele>
        <time>2018-08-10T06:17:35Z</time>
      </trkpt>
      <trkpt lat="44.68279" lon="5.89372">
        <ele>1565.47</ele>
        <time>2018-08-10T06:17:47Z</time>
      </trkpt>
      <trkpt lat="44.68278" lon="5.89373">
        <ele>1566.65</ele>
        <time>2018-08-10T06:18:13Z</time>
      </trkpt>
      <trkpt lat="44.68274" lon="5.89373">
        <ele>1566.48</ele>
        <time>2018-08-10T06:18:22Z</time>
      </trkpt>
      <trkpt lat="44.68269" lon="5.89373">
        <ele>1566.7</ele>
        <time>2018-08-10T06:18:39Z</time>
      </trkpt>
      <trkpt lat="44.68255" lon="5.89377">
        <ele>1567.05</ele>
        <time>2018-08-10T06:18:57Z</time>
      </trkpt>
      <trkpt lat="44.68243" lon="5.89374">
        <ele>1568.65</ele>
        <time>2018-08-10T06:19:12Z</time>
      </trkpt>
      <trkpt lat="44.6823" lon="5.89372">
        <ele>1570.4</ele>
        <time>2018-08-10T06:19:28Z</time>
      </trkpt>
      <trkpt lat="44.68224" lon="5.89368">
        <ele>1571.52</ele>
        <time>2018-08-10T06:19:36Z</time>
      </trkpt>
      <trkpt lat="44.68211" lon="5.89362">
        <ele>1573.04</ele>
        <time>2018-08-10T06:19:52Z</time>
      </trkpt>
      <trkpt lat="44.68197" lon="5.8936">
        <ele>1575.71</ele>
        <time>2018-08-10T06:20:11Z</time>
      </trkpt>
      <trkpt lat="44.68187" lon="5.89355">
        <ele>1578.28</ele>
        <time>2018-08-10T06:20:26Z</time>
      </trkpt>
      <trkpt lat="44.68175" lon="5.89353">
        <ele>1581.08</ele>
        <time>2018-08-10T06:20:42Z</time>
      </trkpt>
      <trkpt lat="44.68164" lon="5.89351">
        <ele>1582.96</ele>
        <time>2018-08-10T06:20:57Z</time>
      </trkpt>
      <trkpt lat="44.68154" lon="5.89349">
        <ele>1584.73</ele>
        <time>2018-08-10T06:21:10Z</time>
      </trkpt>
      <trkpt lat="44.68142" lon="5.89344">
        <ele>1586.92</ele>
        <time>2018-08-10T06:21:26Z</time>
      </trkpt>
      <trkpt lat="44.68138" lon="5.89343">
        <ele>1589.5</ele>
        <time>2018-08-10T06:21:49Z</time>
      </trkpt>
      <trkpt lat="44.68131" lon="5.89339">
        <ele>1589.61</ele>
        <time>2018-08-10T06:22:25Z</time>
      </trkpt>
      <trkpt lat="44.68121" lon="5.89334">
        <ele>1591.17</ele>
        <time>2018-08-10T06:22:40Z</time>
      </trkpt>
      <trkpt lat="44.68108" lon="5.89327">
        <ele>1593.94</ele>
        <time>2018-08-10T06:23:03Z</time>
      </trkpt>
      <trkpt lat="44.68101" lon="5.89322">
        <ele>1596.48</ele>
        <time>2018-08-10T06:23:22Z</time>
      </trkpt>
      <trkpt lat="44.68095" lon="5.89307">
        <ele>1597.19</ele>
        <time>2018-08-10T06:23:40Z</time>
      </trkpt>
      <trkpt lat="44.68095" lon="5.89304">
        <ele>1597.34</ele>
        <time>2018-08-10T06:23:42Z</time>
      </trkpt>
      <trkpt lat="44.68093" lon="5.893">
        <ele>1598.81</ele>
        <time>2018-08-10T06:24:01Z</time>
      </trkpt>
      <trkpt lat="44.68091" lon="5.8929">
        <ele>1598.93</ele>
        <time>2018-08-10T06:24:10Z</time>
      </trkpt>
      <trkpt lat="44.6808" lon="5.89273">
        <ele>1601.01</ele>
        <time>2018-08-10T06:24:28Z</time>
      </trkpt>
      <trkpt lat="44.68071" lon="5.89262">
        <ele>1603.06</ele>
        <time>2018-08-10T06:24:44Z</time>
      </trkpt>
      <trkpt lat="44.68063" lon="5.8925">
        <ele>1605.4</ele>
        <time>2018-08-10T06:24:59Z</time>
      </trkpt>
      <trkpt lat="44.68061" lon="5.89241">
        <ele>1606.71</ele>
        <time>2018-08-10T06:25:09Z</time>
      </trkpt>
      <trkpt lat="44.68054" lon="5.89227">
        <ele>1608.85</ele>
        <time>2018-08-10T06:25:24Z</time>
      </trkpt>
      <trkpt lat="44.68051" lon="5.8921">
        <ele>1609.86</ele>
        <time>2018-08-10T06:25:38Z</time>
      </trkpt>
      <trkpt lat="44.68051" lon="5.892">
        <ele>1610.47</ele>
        <time>2018-08-10T06:25:45Z</time>
      </trkpt>
      <trkpt lat="44.68044" lon="5.89188">
        <ele>1611.69</ele>
        <time>2018-08-10T06:26:02Z</time>
      </trkpt>
      <trkpt lat="44.68041" lon="5.89179">
        <ele>1613.58</ele>
        <time>2018-08-10T06:26:18Z</time>
      </trkpt>
      <trkpt lat="44.68034" lon="5.8917">
        <ele>1614.63</ele>
        <time>2018-08-10T06:26:36Z</time>
      </trkpt>
      <trkpt lat="44.68028" lon="5.89167">
        <ele>1615.5</ele>
        <time>2018-08-10T06:27:02Z</time>
      </trkpt>
      <trkpt lat="44.68024" lon="5.89166">
        <ele>1616.16</ele>
        <time>2018-08-10T06:27:26Z</time>
      </trkpt>
      <trkpt lat="44.68009" lon="5.89171">
        <ele>1619.21</ele>
        <time>2018-08-10T06:27:45Z</time>
      </trkpt>
      <trkpt lat="44.67996" lon="5.89175">
        <ele>1622.39</ele>
        <time>2018-08-10T06:28:02Z</time>
      </trkpt>
      <trkpt lat="44.67985" lon="5.89171">
        <ele>1625.45</ele>
        <time>2018-08-10T06:28:21Z</time>
      </trkpt>
      <trkpt lat="44.67972" lon="5.89166">
        <ele>1627.73</ele>
        <time>2018-08-10T06:28:40Z</time>
      </trkpt>
      <trkpt lat="44.67954" lon="5.89165">
        <ele>1630.79</ele>
        <time>2018-08-10T06:29:02Z</time>
      </trkpt>
      <trkpt lat="44.67945" lon="5.89165">
        <ele>1633.86</ele>
        <time>2018-08-10T06:29:20Z</time>
      </trkpt>
      <trkpt lat="44.67941" lon="5.89161">
        <ele>1635.24</ele>
        <time>2018-08-10T06:29:42Z</time>
      </trkpt>
      <trkpt lat="44.67939" lon="5.89165">
        <ele>1635.53</ele>
        <time>2018-08-10T06:30:03Z</time>
      </trkpt>
      <trkpt lat="44.67938" lon="5.8916">
        <ele>1635.42</ele>
        <time>2018-08-10T06:30:34Z</time>
      </trkpt>
      <trkpt lat="44.67928" lon="5.8915">
        <ele>1635.65</ele>
        <time>2018-08-10T06:31:06Z</time>
      </trkpt>
      <trkpt lat="44.67912" lon="5.89144">
        <ele>1636.77</ele>
        <time>2018-08-10T06:31:25Z</time>
      </trkpt>
      <trkpt lat="44.67903" lon="5.89136">
        <ele>1638.48</ele>
        <time>2018-08-10T06:31:38Z</time>
      </trkpt>
      <trkpt lat="44.679" lon="5.89125">
        <ele>1639.38</ele>
        <time>2018-08-10T06:31:47Z</time>
      </trkpt>
      <trkpt lat="44.67892" lon="5.89112">
        <ele>1640.95</ele>
        <time>2018-08-10T06:32:01Z</time>
      </trkpt>
      <trkpt lat="44.67886" lon="5.89094">
        <ele>1642.93</ele>
        <time>2018-08-10T06:32:18Z</time>
      </trkpt>
      <trkpt lat="44.67884" lon="5.89087">
        <ele>1643.56</ele>
        <time>2018-08-10T06:32:35Z</time>
      </trkpt>
      <trkpt lat="44.67881" lon="5.89075">
        <ele>1644.31</ele>
        <time>2018-08-10T06:32:50Z</time>
      </trkpt>
      <trkpt lat="44.67881" lon="5.89057">
        <ele>1645.43</ele>
        <time>2018-08-10T06:33:06Z</time>
      </trkpt>
      <trkpt lat="44.67881" lon="5.89047">
        <ele>1647.4</ele>
        <time>2018-08-10T06:33:18Z</time>
      </trkpt>
      <trkpt lat="44.67874" lon="5.89028">
        <ele>1650.14</ele>
        <time>2018-08-10T06:33:37Z</time>
      </trkpt>
      <trkpt lat="44.6787" lon="5.89021">
        <ele>1651.07</ele>
        <time>2018-08-10T06:33:44Z</time>
      </trkpt>
      <trkpt lat="44.67858" lon="5.89005">
        <ele>1652.66</ele>
        <time>2018-08-10T06:34:01Z</time>
      </trkpt>
      <trkpt lat="44.67844" lon="5.88987">
        <ele>1655.78</ele>
        <time>2018-08-10T06:34:26Z</time>
      </trkpt>
      <trkpt lat="44.67836" lon="5.88973">
        <ele>1657.99</ele>
        <time>2018-08-10T06:34:43Z</time>
      </trkpt>
      <trkpt lat="44.67832" lon="5.88969">
        <ele>1658.53</ele>
        <time>2018-08-10T06:34:48Z</time>
      </trkpt>
      <trkpt lat="44.67831" lon="5.88969">
        <ele>1658.95</ele>
        <time>2018-08-10T06:35:19Z</time>
      </trkpt>
      <trkpt lat="44.67831" lon="5.88966">
        <ele>1658.86</ele>
        <time>2018-08-10T06:36:01Z</time>
      </trkpt>
      <trkpt lat="44.67827" lon="5.88962">
        <ele>1658.87</ele>
        <time>2018-08-10T06:36:07Z</time>
      </trkpt>
      <trkpt lat="44.67823" lon="5.88952">
        <ele>1659.09</ele>
        <time>2018-08-10T06:36:21Z</time>
      </trkpt>
      <trkpt lat="44.67815" lon="5.88934">
        <ele>1659.38</ele>
        <time>2018-08-10T06:36:38Z</time>
      </trkpt>
      <trkpt lat="44.67809" lon="5.88922">
        <ele>1659.75</ele>
        <time>2018-08-10T06:36:50Z</time>
      </trkpt>
      <trkpt lat="44.67805" lon="5.88913">
        <ele>1660.41</ele>
        <time>2018-08-10T06:37:02Z</time>
      </trkpt>
      <trkpt lat="44.67797" lon="5.88902">
        <ele>1661.88</ele>
        <time>2018-08-10T06:37:19Z</time>
      </trkpt>
      <trkpt lat="44.67792" lon="5.88897">
        <ele>1662.18</ele>
        <time>2018-08-10T06:37:26Z</time>
      </trkpt>
      <trkpt lat="44.67779" lon="5.88887">
        <ele>1663.79</ele>
        <time>2018-08-10T06:37:46Z</time>
      </trkpt>
      <trkpt lat="44.67769" lon="5.88881">
        <ele>1664.37</ele>
        <time>2018-08-10T06:38:07Z</time>
      </trkpt>
      <trkpt lat="44.67758" lon="5.88874">
        <ele>1665.18</ele>
        <time>2018-08-10T06:38:19Z</time>
      </trkpt>
      <trkpt lat="44.67755" lon="5.8887">
        <ele>1665.64</ele>
        <time>2018-08-10T06:38:23Z</time>
      </trkpt>
      <trkpt lat="44.67748" lon="5.88859">
        <ele>1667.58</ele>
        <time>2018-08-10T06:38:38Z</time>
      </trkpt>
      <trkpt lat="44.6774" lon="5.88852">
        <ele>1669.1</ele>
        <time>2018-08-10T06:38:54Z</time>
      </trkpt>
      <trkpt lat="44.6773" lon="5.88842">
        <ele>1670.23</ele>
        <time>2018-08-10T06:39:19Z</time>
      </trkpt>
      <trkpt lat="44.67719" lon="5.88833">
        <ele>1673.18</ele>
        <time>2018-08-10T06:39:39Z</time>
      </trkpt>
      <trkpt lat="44.67709" lon="5.88824">
        <ele>1675.1</ele>
        <time>2018-08-10T06:39:53Z</time>
      </trkpt>
      <trkpt lat="44.67702" lon="5.88811">
        <ele>1677.21</ele>
        <time>2018-08-10T06:40:06Z</time>
      </trkpt>
      <trkpt lat="44.67695" lon="5.88801">
        <ele>1678.6</ele>
        <time>2018-08-10T06:40:19Z</time>
      </trkpt>
      <trkpt lat="44.6769" lon="5.88791">
        <ele>1680.14</ele>
        <time>2018-08-10T06:40:31Z</time>
      </trkpt>
      <trkpt lat="44.67678" lon="5.88773">
        <ele>1682.49</ele>
        <time>2018-08-10T06:40:51Z</time>
      </trkpt>
      <trkpt lat="44.67659" lon="5.88769">
        <ele>1683.41</ele>
        <time>2018-08-10T06:41:11Z</time>
      </trkpt>
      <trkpt lat="44.67654" lon="5.88765">
        <ele>1683.98</ele>
        <time>2018-08-10T06:41:18Z</time>
      </trkpt>
      <trkpt lat="44.67648" lon="5.88761">
        <ele>1684.55</ele>
        <time>2018-08-10T06:41:27Z</time>
      </trkpt>
      <trkpt lat="44.67646" lon="5.88759">
        <ele>1684.64</ele>
        <time>2018-08-10T06:41:29Z</time>
      </trkpt>
      <trkpt lat="44.67641" lon="5.88753">
        <ele>1685.07</ele>
        <time>2018-08-10T06:41:36Z</time>
      </trkpt>
      <trkpt lat="44.67639" lon="5.8875">
        <ele>1685.16</ele>
        <time>2018-08-10T06:41:39Z</time>
      </trkpt>
      <trkpt lat="44.67636" lon="5.88747">
        <ele>1685.26</ele>
        <time>2018-08-10T06:41:43Z</time>
      </trkpt>
      <trkpt lat="44.67627" lon="5.8874">
        <ele>1685.98</ele>
        <time>2018-08-10T06:41:54Z</time>
      </trkpt>
      <trkpt lat="44.67615" lon="5.88734">
        <ele>1687.62</ele>
        <time>2018-08-10T06:42:08Z</time>
      </trkpt>
      <trkpt lat="44.67615" lon="5.88734">
        <ele>1687.75</ele>
        <time>2018-08-10T06:42:09Z</time>
      </trkpt>
      <trkpt lat="44.67613" lon="5.88733">
        <ele>1688.13</ele>
        <time>2018-08-10T06:42:11Z</time>
      </trkpt>
      <trkpt lat="44.67606" lon="5.88726">
        <ele>1689.16</ele>
        <time>2018-08-10T06:42:21Z</time>
      </trkpt>
      <trkpt lat="44.67594" lon="5.88716">
        <ele>1692.07</ele>
        <time>2018-08-10T06:42:39Z</time>
      </trkpt>
      <trkpt lat="44.67591" lon="5.88708">
        <ele>1694.11</ele>
        <time>2018-08-10T06:43:02Z</time>
      </trkpt>
      <trkpt lat="44.67592" lon="5.88709">
        <ele>1694.01</ele>
        <time>2018-08-10T06:43:41Z</time>
      </trkpt>
      <trkpt lat="44.67586" lon="5.887">
        <ele>1694.22</ele>
        <time>2018-08-10T06:44:01Z</time>
      </trkpt>
      <trkpt lat="44.67586" lon="5.88692">
        <ele>1694.95</ele>
        <time>2018-08-10T06:44:09Z</time>
      </trkpt>
      <trkpt lat="44.67585" lon="5.88688">
        <ele>1695.08</ele>
        <time>2018-08-10T06:44:12Z</time>
      </trkpt>
      <trkpt lat="44.67585" lon="5.88684">
        <ele>1695.13</ele>
        <time>2018-08-10T06:44:14Z</time>
      </trkpt>
      <trkpt lat="44.67585" lon="5.88679">
        <ele>1695.24</ele>
        <time>2018-08-10T06:44:23Z</time>
      </trkpt>
      <trkpt lat="44.67581" lon="5.88669">
        <ele>1695.48</ele>
        <time>2018-08-10T06:44:39Z</time>
      </trkpt>
      <trkpt lat="44.67577" lon="5.88655">
        <ele>1695.95</ele>
        <time>2018-08-10T06:44:55Z</time>
      </trkpt>
      <trkpt lat="44.67567" lon="5.88644">
        <ele>1696.22</ele>
        <time>2018-08-10T06:45:10Z</time>
      </trkpt>
      <trkpt lat="44.67565" lon="5.88642">
        <ele>1696.28</ele>
        <time>2018-08-10T06:45:12Z</time>
      </trkpt>
      <trkpt lat="44.67562" lon="5.88636">
        <ele>1697.24</ele>
        <time>2018-08-10T06:45:24Z</time>
      </trkpt>
      <trkpt lat="44.67558" lon="5.88624">
        <ele>1697.79</ele>
        <time>2018-08-10T06:45:37Z</time>
      </trkpt>
      <trkpt lat="44.67555" lon="5.88619">
        <ele>1697.82</ele>
        <time>2018-08-10T06:45:41Z</time>
      </trkpt>
      <trkpt lat="44.67554" lon="5.88615">
        <ele>1697.86</ele>
        <time>2018-08-10T06:45:44Z</time>
      </trkpt>
      <trkpt lat="44.67551" lon="5.88612">
        <ele>1697.87</ele>
        <time>2018-08-10T06:45:47Z</time>
      </trkpt>
      <trkpt lat="44.67549" lon="5.88608">
        <ele>1697.88</ele>
        <time>2018-08-10T06:45:51Z</time>
      </trkpt>
      <trkpt lat="44.6754" lon="5.88602">
        <ele>1698.27</ele>
        <time>2018-08-10T06:46:00Z</time>
      </trkpt>
      <trkpt lat="44.67527" lon="5.88594">
        <ele>1698.54</ele>
        <time>2018-08-10T06:46:14Z</time>
      </trkpt>
      <trkpt lat="44.67522" lon="5.88592">
        <ele>1698.36</ele>
        <time>2018-08-10T06:46:19Z</time>
      </trkpt>
      <trkpt lat="44.67512" lon="5.88585">
        <ele>1697.31</ele>
        <time>2018-08-10T06:46:32Z</time>
      </trkpt>
      <trkpt lat="44.67499" lon="5.88579">
        <ele>1695.87</ele>
        <time>2018-08-10T06:46:45Z</time>
      </trkpt>
      <trkpt lat="44.67484" lon="5.88577">
        <ele>1696.72</ele>
        <time>2018-08-10T06:46:59Z</time>
      </trkpt>
      <trkpt lat="44.67472" lon="5.88572">
        <ele>1698.96</ele>
        <time>2018-08-10T06:47:13Z</time>
      </trkpt>
      <trkpt lat="44.67465" lon="5.88573">
        <ele>1699.92</ele>
        <time>2018-08-10T06:47:19Z</time>
      </trkpt>
      <trkpt lat="44.67462" lon="5.88568">
        <ele>1701.77</ele>
        <time>2018-08-10T06:47:33Z</time>
      </trkpt>
      <trkpt lat="44.67461" lon="5.88566">
        <ele>1702.06</ele>
        <time>2018-08-10T06:48:04Z</time>
      </trkpt>
      <trkpt lat="44.67451" lon="5.88552">
        <ele>1702.44</ele>
        <time>2018-08-10T06:48:17Z</time>
      </trkpt>
      <trkpt lat="44.67442" lon="5.88534">
        <ele>1702.26</ele>
        <time>2018-08-10T06:48:33Z</time>
      </trkpt>
      <trkpt lat="44.6744" lon="5.88531">
        <ele>1702.26</ele>
        <time>2018-08-10T06:48:37Z</time>
      </trkpt>
      <trkpt lat="44.6744" lon="5.88528">
        <ele>1702.26</ele>
        <time>2018-08-10T06:48:39Z</time>
      </trkpt>
      <trkpt lat="44.67429" lon="5.88515">
        <ele>1702.58</ele>
        <time>2018-08-10T06:48:59Z</time>
      </trkpt>
      <trkpt lat="44.67422" lon="5.88503">
        <ele>1702.76</ele>
        <time>2018-08-10T06:49:16Z</time>
      </trkpt>
      <trkpt lat="44.6741" lon="5.88492">
        <ele>1703.61</ele>
        <time>2018-08-10T06:49:32Z</time>
      </trkpt>
      <trkpt lat="44.674" lon="5.88484">
        <ele>1706.75</ele>
        <time>2018-08-10T06:49:57Z</time>
      </trkpt>
      <trkpt lat="44.67392" lon="5.8847">
        <ele>1709.8</ele>
        <time>2018-08-10T06:50:17Z</time>
      </trkpt>
      <trkpt lat="44.67379" lon="5.88466">
        <ele>1712.97</ele>
        <time>2018-08-10T06:50:37Z</time>
      </trkpt>
      <trkpt lat="44.67371" lon="5.88459">
        <ele>1716.11</ele>
        <time>2018-08-10T06:50:55Z</time>
      </trkpt>
      <trkpt lat="44.67362" lon="5.88454">
        <ele>1719.18</ele>
        <time>2018-08-10T06:51:12Z</time>
      </trkpt>
      <trkpt lat="44.67356" lon="5.88446">
        <ele>1721.89</ele>
        <time>2018-08-10T06:51:28Z</time>
      </trkpt>
      <trkpt lat="44.67346" lon="5.88432">
        <ele>1724.98</ele>
        <time>2018-08-10T06:51:47Z</time>
      </trkpt>
      <trkpt lat="44.67336" lon="5.88419">
        <ele>1728.06</ele>
        <time>2018-08-10T06:52:05Z</time>
      </trkpt>
      <trkpt lat="44.67335" lon="5.88415">
        <ele>1730.19</ele>
        <time>2018-08-10T06:52:21Z</time>
      </trkpt>
      <trkpt lat="44.67336" lon="5.88418">
        <ele>1730.18</ele>
        <time>2018-08-10T06:52:56Z</time>
      </trkpt>
      <trkpt lat="44.67337" lon="5.88416">
        <ele>1730.11</ele>
        <time>2018-08-10T06:53:45Z</time>
      </trkpt>
      <trkpt lat="44.67329" lon="5.88398">
        <ele>1730.06</ele>
        <time>2018-08-10T06:54:00Z</time>
      </trkpt>
      <trkpt lat="44.67328" lon="5.88395">
        <ele>1730.06</ele>
        <time>2018-08-10T06:54:03Z</time>
      </trkpt>
      <trkpt lat="44.67326" lon="5.88392">
        <ele>1730.07</ele>
        <time>2018-08-10T06:54:06Z</time>
      </trkpt>
      <trkpt lat="44.67323" lon="5.88384">
        <ele>1730.33</ele>
        <time>2018-08-10T06:54:13Z</time>
      </trkpt>
      <trkpt lat="44.67321" lon="5.88381">
        <ele>1730.53</ele>
        <time>2018-08-10T06:54:16Z</time>
      </trkpt>
      <trkpt lat="44.67312" lon="5.88372">
        <ele>1731</ele>
        <time>2018-08-10T06:54:28Z</time>
      </trkpt>
      <trkpt lat="44.67297" lon="5.88366">
        <ele>1732.98</ele>
        <time>2018-08-10T06:54:45Z</time>
      </trkpt>
      <trkpt lat="44.67282" lon="5.88365">
        <ele>1736.22</ele>
        <time>2018-08-10T06:55:06Z</time>
      </trkpt>
      <trkpt lat="44.67271" lon="5.88365">
        <ele>1739.25</ele>
        <time>2018-08-10T06:55:23Z</time>
      </trkpt>
      <trkpt lat="44.6726" lon="5.88364">
        <ele>1742.27</ele>
        <time>2018-08-10T06:55:41Z</time>
      </trkpt>
      <trkpt lat="44.67251" lon="5.88364">
        <ele>1744.5</ele>
        <time>2018-08-10T06:55:56Z</time>
      </trkpt>
      <trkpt lat="44.67243" lon="5.88366">
        <ele>1746.3</ele>
        <time>2018-08-10T06:56:07Z</time>
      </trkpt>
      <trkpt lat="44.67242" lon="5.88359">
        <ele>1747.45</ele>
        <time>2018-08-10T06:56:56Z</time>
      </trkpt>
      <trkpt lat="44.67227" lon="5.88369">
        <ele>1749.57</ele>
        <time>2018-08-10T06:57:26Z</time>
      </trkpt>
      <trkpt lat="44.67215" lon="5.88373">
        <ele>1752.65</ele>
        <time>2018-08-10T06:57:42Z</time>
      </trkpt>
      <trkpt lat="44.67202" lon="5.88375">
        <ele>1755.77</ele>
        <time>2018-08-10T06:58:00Z</time>
      </trkpt>
      <trkpt lat="44.67192" lon="5.88375">
        <ele>1758.94</ele>
        <time>2018-08-10T06:58:17Z</time>
      </trkpt>
      <trkpt lat="44.67183" lon="5.88374">
        <ele>1761.96</ele>
        <time>2018-08-10T06:58:35Z</time>
      </trkpt>
      <trkpt lat="44.67171" lon="5.88371">
        <ele>1765.14</ele>
        <time>2018-08-10T06:58:55Z</time>
      </trkpt>
      <trkpt lat="44.67162" lon="5.88367">
        <ele>1768.25</ele>
        <time>2018-08-10T06:59:13Z</time>
      </trkpt>
      <trkpt lat="44.67147" lon="5.88364">
        <ele>1771.43</ele>
        <time>2018-08-10T06:59:37Z</time>
      </trkpt>
      <trkpt lat="44.67134" lon="5.88366">
        <ele>1774.52</ele>
        <time>2018-08-10T06:59:59Z</time>
      </trkpt>
      <trkpt lat="44.67132" lon="5.88357">
        <ele>1776.38</ele>
        <time>2018-08-10T07:00:37Z</time>
      </trkpt>
      <trkpt lat="44.67133" lon="5.88358">
        <ele>1776.58</ele>
        <time>2018-08-10T07:01:11Z</time>
      </trkpt>
      <trkpt lat="44.67132" lon="5.88356">
        <ele>1776.2</ele>
        <time>2018-08-10T07:01:55Z</time>
      </trkpt>
      <trkpt lat="44.67122" lon="5.88357">
        <ele>1778.35</ele>
        <time>2018-08-10T07:02:12Z</time>
      </trkpt>
      <trkpt lat="44.67105" lon="5.88357">
        <ele>1781.63</ele>
        <time>2018-08-10T07:02:30Z</time>
      </trkpt>
      <trkpt lat="44.67092" lon="5.8835">
        <ele>1784.67</ele>
        <time>2018-08-10T07:02:50Z</time>
      </trkpt>
      <trkpt lat="44.67079" lon="5.88344">
        <ele>1787.86</ele>
        <time>2018-08-10T07:03:11Z</time>
      </trkpt>
      <trkpt lat="44.67071" lon="5.88337">
        <ele>1791.07</ele>
        <time>2018-08-10T07:03:29Z</time>
      </trkpt>
      <trkpt lat="44.67062" lon="5.88329">
        <ele>1794.15</ele>
        <time>2018-08-10T07:03:47Z</time>
      </trkpt>
      <trkpt lat="44.67059" lon="5.88326">
        <ele>1795.94</ele>
        <time>2018-08-10T07:04:01Z</time>
      </trkpt>
      <trkpt lat="44.67063" lon="5.88322">
        <ele>1796.8</ele>
        <time>2018-08-10T07:04:35Z</time>
      </trkpt>
      <trkpt lat="44.67067" lon="5.88318">
        <ele>1796.83</ele>
        <time>2018-08-10T07:05:12Z</time>
      </trkpt>
      <trkpt lat="44.67062" lon="5.88319">
        <ele>1796.83</ele>
        <time>2018-08-10T07:05:24Z</time>
      </trkpt>
      <trkpt lat="44.67043" lon="5.88311">
        <ele>1799.85</ele>
        <time>2018-08-10T07:05:47Z</time>
      </trkpt>
      <trkpt lat="44.67032" lon="5.88308">
        <ele>1802.92</ele>
        <time>2018-08-10T07:06:03Z</time>
      </trkpt>
      <trkpt lat="44.6702" lon="5.88307">
        <ele>1806.04</ele>
        <time>2018-08-10T07:06:19Z</time>
      </trkpt>
      <trkpt lat="44.67007" lon="5.88308">
        <ele>1809.17</ele>
        <time>2018-08-10T07:06:36Z</time>
      </trkpt>
      <trkpt lat="44.66993" lon="5.88311">
        <ele>1812.34</ele>
        <time>2018-08-10T07:06:56Z</time>
      </trkpt>
      <trkpt lat="44.66983" lon="5.88314">
        <ele>1815.37</ele>
        <time>2018-08-10T07:07:13Z</time>
      </trkpt>
      <trkpt lat="44.66973" lon="5.88319">
        <ele>1818.44</ele>
        <time>2018-08-10T07:07:29Z</time>
      </trkpt>
      <trkpt lat="44.66964" lon="5.8833">
        <ele>1821.5</ele>
        <time>2018-08-10T07:07:51Z</time>
      </trkpt>
      <trkpt lat="44.66959" lon="5.88338">
        <ele>1824.07</ele>
        <time>2018-08-10T07:08:18Z</time>
      </trkpt>
      <trkpt lat="44.66956" lon="5.88337">
        <ele>1824.3</ele>
        <time>2018-08-10T07:09:01Z</time>
      </trkpt>
      <trkpt lat="44.66954" lon="5.88338">
        <ele>1824.24</ele>
        <time>2018-08-10T07:09:48Z</time>
      </trkpt>
      <trkpt lat="44.66949" lon="5.88351">
        <ele>1825.85</ele>
        <time>2018-08-10T07:10:04Z</time>
      </trkpt>
      <trkpt lat="44.66939" lon="5.88367">
        <ele>1828.31</ele>
        <time>2018-08-10T07:10:21Z</time>
      </trkpt>
      <trkpt lat="44.66931" lon="5.88379">
        <ele>1830.28</ele>
        <time>2018-08-10T07:10:38Z</time>
      </trkpt>
      <trkpt lat="44.6692" lon="5.88387">
        <ele>1832.91</ele>
        <time>2018-08-10T07:10:56Z</time>
      </trkpt>
      <trkpt lat="44.66908" lon="5.88394">
        <ele>1836.02</ele>
        <time>2018-08-10T07:11:15Z</time>
      </trkpt>
      <trkpt lat="44.669" lon="5.88399">
        <ele>1838.3</ele>
        <time>2018-08-10T07:11:33Z</time>
      </trkpt>
      <trkpt lat="44.66898" lon="5.88399">
        <ele>1839.43</ele>
        <time>2018-08-10T07:12:04Z</time>
      </trkpt>
      <trkpt lat="44.66895" lon="5.88399">
        <ele>1839.22</ele>
        <time>2018-08-10T07:12:35Z</time>
      </trkpt>
      <trkpt lat="44.66896" lon="5.88403">
        <ele>1839.22</ele>
        <time>2018-08-10T07:12:52Z</time>
      </trkpt>
      <trkpt lat="44.66899" lon="5.88399">
        <ele>1839.4</ele>
        <time>2018-08-10T07:13:14Z</time>
      </trkpt>
      <trkpt lat="44.66899" lon="5.88407">
        <ele>1839.84</ele>
        <time>2018-08-10T07:13:36Z</time>
      </trkpt>
      <trkpt lat="44.66909" lon="5.88425">
        <ele>1841.42</ele>
        <time>2018-08-10T07:13:57Z</time>
      </trkpt>
      <trkpt lat="44.66921" lon="5.88442">
        <ele>1844.77</ele>
        <time>2018-08-10T07:14:19Z</time>
      </trkpt>
      <trkpt lat="44.66932" lon="5.88454">
        <ele>1847.94</ele>
        <time>2018-08-10T07:14:39Z</time>
      </trkpt>
      <trkpt lat="44.66941" lon="5.88466">
        <ele>1851.19</ele>
        <time>2018-08-10T07:14:56Z</time>
      </trkpt>
      <trkpt lat="44.66946" lon="5.88474">
        <ele>1854.09</ele>
        <time>2018-08-10T07:15:14Z</time>
      </trkpt>
      <trkpt lat="44.66945" lon="5.88475">
        <ele>1854.68</ele>
        <time>2018-08-10T07:15:46Z</time>
      </trkpt>
      <trkpt lat="44.66949" lon="5.88483">
        <ele>1854.57</ele>
        <time>2018-08-10T07:16:08Z</time>
      </trkpt>
      <trkpt lat="44.6695" lon="5.88484">
        <ele>1854.57</ele>
        <time>2018-08-10T07:16:09Z</time>
      </trkpt>
      <trkpt lat="44.66956" lon="5.885">
        <ele>1855.38</ele>
        <time>2018-08-10T07:16:25Z</time>
      </trkpt>
      <trkpt lat="44.66953" lon="5.88514">
        <ele>1856.13</ele>
        <time>2018-08-10T07:16:44Z</time>
      </trkpt>
      <trkpt lat="44.66946" lon="5.88521">
        <ele>1857.53</ele>
        <time>2018-08-10T07:16:55Z</time>
      </trkpt>
      <trkpt lat="44.66932" lon="5.88527">
        <ele>1860.47</ele>
        <time>2018-08-10T07:17:13Z</time>
      </trkpt>
      <trkpt lat="44.66923" lon="5.88537">
        <ele>1862.58</ele>
        <time>2018-08-10T07:17:28Z</time>
      </trkpt>
      <trkpt lat="44.66918" lon="5.88549">
        <ele>1864.89</ele>
        <time>2018-08-10T07:17:45Z</time>
      </trkpt>
      <trkpt lat="44.66917" lon="5.88552">
        <ele>1865.48</ele>
        <time>2018-08-10T07:17:48Z</time>
      </trkpt>
      <trkpt lat="44.66906" lon="5.88559">
        <ele>1867.62</ele>
        <time>2018-08-10T07:18:04Z</time>
      </trkpt>
      <trkpt lat="44.66897" lon="5.88554">
        <ele>1868.57</ele>
        <time>2018-08-10T07:18:18Z</time>
      </trkpt>
      <trkpt lat="44.66891" lon="5.88553">
        <ele>1871.21</ele>
        <time>2018-08-10T07:18:34Z</time>
      </trkpt>
      <trkpt lat="44.6688" lon="5.88544">
        <ele>1874.21</ele>
        <time>2018-08-10T07:18:53Z</time>
      </trkpt>
      <trkpt lat="44.66873" lon="5.88544">
        <ele>1877.46</ele>
        <time>2018-08-10T07:19:11Z</time>
      </trkpt>
      <trkpt lat="44.66872" lon="5.88548">
        <ele>1878.8</ele>
        <time>2018-08-10T07:19:36Z</time>
      </trkpt>
      <trkpt lat="44.66871" lon="5.88548">
        <ele>1879.16</ele>
        <time>2018-08-10T07:20:11Z</time>
      </trkpt>
      <trkpt lat="44.66872" lon="5.8856">
        <ele>1879.78</ele>
        <time>2018-08-10T07:20:39Z</time>
      </trkpt>
      <trkpt lat="44.66871" lon="5.88576">
        <ele>1882.82</ele>
        <time>2018-08-10T07:21:00Z</time>
      </trkpt>
      <trkpt lat="44.66869" lon="5.88588">
        <ele>1884.66</ele>
        <time>2018-08-10T07:21:19Z</time>
      </trkpt>
      <trkpt lat="44.66862" lon="5.886">
        <ele>1886.76</ele>
        <time>2018-08-10T07:21:35Z</time>
      </trkpt>
      <trkpt lat="44.6686" lon="5.88602">
        <ele>1888.69</ele>
        <time>2018-08-10T07:21:58Z</time>
      </trkpt>
      <trkpt lat="44.66854" lon="5.886">
        <ele>1888.74</ele>
        <time>2018-08-10T07:22:36Z</time>
      </trkpt>
      <trkpt lat="44.66847" lon="5.88591">
        <ele>1889.32</ele>
        <time>2018-08-10T07:22:49Z</time>
      </trkpt>
      <trkpt lat="44.66837" lon="5.88585">
        <ele>1891.43</ele>
        <time>2018-08-10T07:23:03Z</time>
      </trkpt>
      <trkpt lat="44.66833" lon="5.88583">
        <ele>1892.6</ele>
        <time>2018-08-10T07:23:10Z</time>
      </trkpt>
      <trkpt lat="44.66824" lon="5.88574">
        <ele>1894.59</ele>
        <time>2018-08-10T07:23:23Z</time>
      </trkpt>
      <trkpt lat="44.66821" lon="5.88571">
        <ele>1896.76</ele>
        <time>2018-08-10T07:23:38Z</time>
      </trkpt>
      <trkpt lat="44.66811" lon="5.88564">
        <ele>1897.5</ele>
        <time>2018-08-10T07:23:55Z</time>
      </trkpt>
      <trkpt lat="44.66801" lon="5.8856">
        <ele>1900.3</ele>
        <time>2018-08-10T07:24:10Z</time>
      </trkpt>
      <trkpt lat="44.66793" lon="5.88553">
        <ele>1902.24</ele>
        <time>2018-08-10T07:24:22Z</time>
      </trkpt>
      <trkpt lat="44.66785" lon="5.88547">
        <ele>1904.54</ele>
        <time>2018-08-10T07:24:35Z</time>
      </trkpt>
      <trkpt lat="44.66782" lon="5.88546">
        <ele>1905.3</ele>
        <time>2018-08-10T07:24:39Z</time>
      </trkpt>
      <trkpt lat="44.66773" lon="5.88536">
        <ele>1907.19</ele>
        <time>2018-08-10T07:24:54Z</time>
      </trkpt>
      <trkpt lat="44.66766" lon="5.88527">
        <ele>1908.86</ele>
        <time>2018-08-10T07:25:06Z</time>
      </trkpt>
      <trkpt lat="44.66762" lon="5.88521">
        <ele>1910.51</ele>
        <time>2018-08-10T07:25:22Z</time>
      </trkpt>
      <trkpt lat="44.66761" lon="5.88519">
        <ele>1911.08</ele>
        <time>2018-08-10T07:25:44Z</time>
      </trkpt>
      <trkpt lat="44.66761" lon="5.88519">
        <ele>1911.17</ele>
        <time>2018-08-10T07:26:31Z</time>
      </trkpt>
      <trkpt lat="44.66748" lon="5.8851">
        <ele>1911.85</ele>
        <time>2018-08-10T07:26:49Z</time>
      </trkpt>
      <trkpt lat="44.66737" lon="5.88514">
        <ele>1913.23</ele>
        <time>2018-08-10T07:27:06Z</time>
      </trkpt>
      <trkpt lat="44.66736" lon="5.88515">
        <ele>1914.21</ele>
        <time>2018-08-10T07:27:26Z</time>
      </trkpt>
      <trkpt lat="44.66733" lon="5.88521">
        <ele>1914.2</ele>
        <time>2018-08-10T07:27:44Z</time>
      </trkpt>
      <trkpt lat="44.66728" lon="5.88534">
        <ele>1914.71</ele>
        <time>2018-08-10T07:27:58Z</time>
      </trkpt>
      <trkpt lat="44.66726" lon="5.88538">
        <ele>1915</ele>
        <time>2018-08-10T07:28:02Z</time>
      </trkpt>
      <trkpt lat="44.66714" lon="5.88557">
        <ele>1916.18</ele>
        <time>2018-08-10T07:28:20Z</time>
      </trkpt>
      <trkpt lat="44.66703" lon="5.88574">
        <ele>1917.46</ele>
        <time>2018-08-10T07:28:38Z</time>
      </trkpt>
      <trkpt lat="44.66693" lon="5.88583">
        <ele>1918.47</ele>
        <time>2018-08-10T07:28:51Z</time>
      </trkpt>
      <trkpt lat="44.66681" lon="5.88582">
        <ele>1921.27</ele>
        <time>2018-08-10T07:29:05Z</time>
      </trkpt>
      <trkpt lat="44.6667" lon="5.88585">
        <ele>1923.69</ele>
        <time>2018-08-10T07:29:20Z</time>
      </trkpt>
      <trkpt lat="44.66659" lon="5.88586">
        <ele>1926.37</ele>
        <time>2018-08-10T07:29:35Z</time>
      </trkpt>
      <trkpt lat="44.66646" lon="5.88589">
        <ele>1927.69</ele>
        <time>2018-08-10T07:29:49Z</time>
      </trkpt>
      <trkpt lat="44.66633" lon="5.88589">
        <ele>1929.26</ele>
        <time>2018-08-10T07:30:05Z</time>
      </trkpt>
      <trkpt lat="44.66615" lon="5.88595">
        <ele>1930.91</ele>
        <time>2018-08-10T07:30:31Z</time>
      </trkpt>
      <trkpt lat="44.6661" lon="5.88596">
        <ele>1931.02</ele>
        <time>2018-08-10T07:30:51Z</time>
      </trkpt>
      <trkpt lat="44.66609" lon="5.88596">
        <ele>1931.29</ele>
        <time>2018-08-10T07:31:26Z</time>
      </trkpt>
      <trkpt lat="44.66608" lon="5.88602">
        <ele>1931.14</ele>
        <time>2018-08-10T07:32:05Z</time>
      </trkpt>
      <trkpt lat="44.66599" lon="5.88624">
        <ele>1930.59</ele>
        <time>2018-08-10T07:32:25Z</time>
      </trkpt>
      <trkpt lat="44.66599" lon="5.88646">
        <ele>1930.78</ele>
        <time>2018-08-10T07:32:43Z</time>
      </trkpt>
      <trkpt lat="44.66607" lon="5.88666">
        <ele>1932.42</ele>
        <time>2018-08-10T07:33:02Z</time>
      </trkpt>
      <trkpt lat="44.66622" lon="5.88684">
        <ele>1933.6</ele>
        <time>2018-08-10T07:33:25Z</time>
      </trkpt>
      <trkpt lat="44.66622" lon="5.88689">
        <ele>1933.64</ele>
        <time>2018-08-10T07:33:28Z</time>
      </trkpt>
      <trkpt lat="44.66635" lon="5.88705">
        <ele>1934.44</ele>
        <time>2018-08-10T07:33:48Z</time>
      </trkpt>
      <trkpt lat="44.66637" lon="5.8871">
        <ele>1935.44</ele>
        <time>2018-08-10T07:34:04Z</time>
      </trkpt>
      <trkpt lat="44.66634" lon="5.88738">
        <ele>1937.38</ele>
        <time>2018-08-10T07:34:26Z</time>
      </trkpt>
      <trkpt lat="44.66634" lon="5.88757">
        <ele>1938.37</ele>
        <time>2018-08-10T07:34:40Z</time>
      </trkpt>
      <trkpt lat="44.66626" lon="5.88773">
        <ele>1940.51</ele>
        <time>2018-08-10T07:34:57Z</time>
      </trkpt>
      <trkpt lat="44.66624" lon="5.88786">
        <ele>1943.32</ele>
        <time>2018-08-10T07:35:12Z</time>
      </trkpt>
      <trkpt lat="44.66622" lon="5.88796">
        <ele>1944.42</ele>
        <time>2018-08-10T07:35:35Z</time>
      </trkpt>
      <trkpt lat="44.66618" lon="5.88813">
        <ele>1945.68</ele>
        <time>2018-08-10T07:35:51Z</time>
      </trkpt>
      <trkpt lat="44.66611" lon="5.88828">
        <ele>1947.58</ele>
        <time>2018-08-10T07:36:05Z</time>
      </trkpt>
      <trkpt lat="44.66605" lon="5.88844">
        <ele>1949.56</ele>
        <time>2018-08-10T07:36:21Z</time>
      </trkpt>
      <trkpt lat="44.66609" lon="5.88847">
        <ele>1950.74</ele>
        <time>2018-08-10T07:36:40Z</time>
      </trkpt>
      <trkpt lat="44.66609" lon="5.88848">
        <ele>1951.35</ele>
        <time>2018-08-10T07:37:05Z</time>
      </trkpt>
      <trkpt lat="44.66613" lon="5.88856">
        <ele>1951.39</ele>
        <time>2018-08-10T07:37:21Z</time>
      </trkpt>
      <trkpt lat="44.66616" lon="5.88866">
        <ele>1953.49</ele>
        <time>2018-08-10T07:37:33Z</time>
      </trkpt>
      <trkpt lat="44.66622" lon="5.88883">
        <ele>1955.96</ele>
        <time>2018-08-10T07:37:49Z</time>
      </trkpt>
      <trkpt lat="44.6662" lon="5.88892">
        <ele>1957.7</ele>
        <time>2018-08-10T07:38:05Z</time>
      </trkpt>
      <trkpt lat="44.66619" lon="5.88898">
        <ele>1958.02</ele>
        <time>2018-08-10T07:38:21Z</time>
      </trkpt>
      <trkpt lat="44.66619" lon="5.88899">
        <ele>1958.13</ele>
        <time>2018-08-10T07:38:42Z</time>
      </trkpt>
      <trkpt lat="44.66617" lon="5.889">
        <ele>1957.9</ele>
        <time>2018-08-10T07:39:24Z</time>
      </trkpt>
      <trkpt lat="44.66619" lon="5.88897">
        <ele>1957.91</ele>
        <time>2018-08-10T07:39:48Z</time>
      </trkpt>
      <trkpt lat="44.66621" lon="5.88897">
        <ele>1957.89</ele>
        <time>2018-08-10T07:40:19Z</time>
      </trkpt>
      <trkpt lat="44.66619" lon="5.88898">
        <ele>1957.89</ele>
        <time>2018-08-10T07:40:25Z</time>
      </trkpt>
      <trkpt lat="44.66619" lon="5.88898">
        <ele>1957.88</ele>
        <time>2018-08-10T07:40:37Z</time>
      </trkpt>
      <trkpt lat="44.66621" lon="5.88897">
        <ele>1957.95</ele>
        <time>2018-08-10T07:40:55Z</time>
      </trkpt>
      <trkpt lat="44.66619" lon="5.88898">
        <ele>1957.79</ele>
        <time>2018-08-10T07:41:20Z</time>
      </trkpt>
      <trkpt lat="44.66617" lon="5.88901">
        <ele>1957.89</ele>
        <time>2018-08-10T07:41:30Z</time>
      </trkpt>
      <trkpt lat="44.66615" lon="5.889">
        <ele>1957.94</ele>
        <time>2018-08-10T07:41:43Z</time>
      </trkpt>
      <trkpt lat="44.66617" lon="5.889">
        <ele>1957.87</ele>
        <time>2018-08-10T07:41:58Z</time>
      </trkpt>
      <trkpt lat="44.66617" lon="5.88899">
        <ele>1957.95</ele>
        <time>2018-08-10T07:42:13Z</time>
      </trkpt>
      <trkpt lat="44.66616" lon="5.889">
        <ele>1957.89</ele>
        <time>2018-08-10T07:42:26Z</time>
      </trkpt>
      <trkpt lat="44.66613" lon="5.88901">
        <ele>1957.83</ele>
        <time>2018-08-10T07:42:36Z</time>
      </trkpt>
      <trkpt lat="44.66606" lon="5.88917">
        <ele>1956.42</ele>
        <time>2018-08-10T07:42:51Z</time>
      </trkpt>
      <trkpt lat="44.66608" lon="5.88923">
        <ele>1955.95</ele>
        <time>2018-08-10T07:43:04Z</time>
      </trkpt>
      <trkpt lat="44.66606" lon="5.88922">
        <ele>1956.05</ele>
        <time>2018-08-10T07:43:15Z</time>
      </trkpt>
      <trkpt lat="44.66607" lon="5.8892">
        <ele>1955.66</ele>
        <time>2018-08-10T07:43:43Z</time>
      </trkpt>
      <trkpt lat="44.66606" lon="5.8892">
        <ele>1955.87</ele>
        <time>2018-08-10T07:44:38Z</time>
      </trkpt>
      <trkpt lat="44.66605" lon="5.8892">
        <ele>1956.2</ele>
        <time>2018-08-10T07:46:24Z</time>
      </trkpt>
      <trkpt lat="44.66608" lon="5.88917">
        <ele>1956.05</ele>
        <time>2018-08-10T07:47:06Z</time>
      </trkpt>
      <trkpt lat="44.66604" lon="5.88923">
        <ele>1956.19</ele>
        <time>2018-08-10T07:47:45Z</time>
      </trkpt>
      <trkpt lat="44.66603" lon="5.88923">
        <ele>1956.59</ele>
        <time>2018-08-10T07:48:41Z</time>
      </trkpt>
      <trkpt lat="44.66606" lon="5.88924">
        <ele>1956.59</ele>
        <time>2018-08-10T07:48:50Z</time>
      </trkpt>
      <trkpt lat="44.66606" lon="5.8892">
        <ele>1956.59</ele>
        <time>2018-08-10T07:49:02Z</time>
      </trkpt>
      <trkpt lat="44.66605" lon="5.88922">
        <ele>1956.33</ele>
        <time>2018-08-10T07:49:24Z</time>
      </trkpt>
      <trkpt lat="44.66601" lon="5.8892">
        <ele>1956.35</ele>
        <time>2018-08-10T07:49:30Z</time>
      </trkpt>
      <trkpt lat="44.66593" lon="5.88921">
        <ele>1956.52</ele>
        <time>2018-08-10T07:49:40Z</time>
      </trkpt>
      <trkpt lat="44.6659" lon="5.88926">
        <ele>1956.7</ele>
        <time>2018-08-10T07:49:47Z</time>
      </trkpt>
      <trkpt lat="44.66583" lon="5.88941">
        <ele>1956.59</ele>
        <time>2018-08-10T07:50:00Z</time>
      </trkpt>
      <trkpt lat="44.66578" lon="5.88948">
        <ele>1955.61</ele>
        <time>2018-08-10T07:50:09Z</time>
      </trkpt>
      <trkpt lat="44.66565" lon="5.88943">
        <ele>1954.07</ele>
        <time>2018-08-10T07:50:22Z</time>
      </trkpt>
      <trkpt lat="44.66561" lon="5.8894">
        <ele>1953.94</ele>
        <time>2018-08-10T07:50:26Z</time>
      </trkpt>
      <trkpt lat="44.66556" lon="5.88937">
        <ele>1953.8</ele>
        <time>2018-08-10T07:50:30Z</time>
      </trkpt>
      <trkpt lat="44.66541" lon="5.88926">
        <ele>1953.85</ele>
        <time>2018-08-10T07:50:47Z</time>
      </trkpt>
      <trkpt lat="44.66534" lon="5.88923">
        <ele>1953.8</ele>
        <time>2018-08-10T07:50:55Z</time>
      </trkpt>
      <trkpt lat="44.66524" lon="5.88933">
        <ele>1953.57</ele>
        <time>2018-08-10T07:51:12Z</time>
      </trkpt>
      <trkpt lat="44.66522" lon="5.88937">
        <ele>1954.36</ele>
        <time>2018-08-10T07:51:36Z</time>
      </trkpt>
      <trkpt lat="44.66521" lon="5.88938">
        <ele>1954.35</ele>
        <time>2018-08-10T07:51:37Z</time>
      </trkpt>
      <trkpt lat="44.66519" lon="5.88942">
        <ele>1954.34</ele>
        <time>2018-08-10T07:51:41Z</time>
      </trkpt>
      <trkpt lat="44.66503" lon="5.88951">
        <ele>1954.96</ele>
        <time>2018-08-10T07:51:59Z</time>
      </trkpt>
      <trkpt lat="44.66491" lon="5.88957">
        <ele>1955.47</ele>
        <time>2018-08-10T07:52:13Z</time>
      </trkpt>
      <trkpt lat="44.66489" lon="5.88959">
        <ele>1955.8</ele>
        <time>2018-08-10T07:52:15Z</time>
      </trkpt>
      <trkpt lat="44.66484" lon="5.88961">
        <ele>1956.45</ele>
        <time>2018-08-10T07:52:27Z</time>
      </trkpt>
      <trkpt lat="44.66478" lon="5.8896">
        <ele>1956.51</ele>
        <time>2018-08-10T07:52:57Z</time>
      </trkpt>
      <trkpt lat="44.66469" lon="5.88958">
        <ele>1956.81</ele>
        <time>2018-08-10T07:53:09Z</time>
      </trkpt>
      <trkpt lat="44.66469" lon="5.88957">
        <ele>1956.87</ele>
        <time>2018-08-10T07:53:10Z</time>
      </trkpt>
      <trkpt lat="44.66464" lon="5.88956">
        <ele>1957.5</ele>
        <time>2018-08-10T07:53:19Z</time>
      </trkpt>
      <trkpt lat="44.66452" lon="5.8895">
        <ele>1958.09</ele>
        <time>2018-08-10T07:53:32Z</time>
      </trkpt>
      <trkpt lat="44.66436" lon="5.88944">
        <ele>1959.54</ele>
        <time>2018-08-10T07:53:48Z</time>
      </trkpt>
      <trkpt lat="44.66432" lon="5.88943">
        <ele>1959.64</ele>
        <time>2018-08-10T07:53:53Z</time>
      </trkpt>
      <trkpt lat="44.66417" lon="5.88939">
        <ele>1959.4</ele>
        <time>2018-08-10T07:54:07Z</time>
      </trkpt>
      <trkpt lat="44.66409" lon="5.88937">
        <ele>1959.07</ele>
        <time>2018-08-10T07:54:15Z</time>
      </trkpt>
      <trkpt lat="44.6639" lon="5.88943">
        <ele>1959.95</ele>
        <time>2018-08-10T07:54:36Z</time>
      </trkpt>
      <trkpt lat="44.66387" lon="5.88943">
        <ele>1960.12</ele>
        <time>2018-08-10T07:54:39Z</time>
      </trkpt>
      <trkpt lat="44.66376" lon="5.88955">
        <ele>1961.19</ele>
        <time>2018-08-10T07:54:53Z</time>
      </trkpt>
      <trkpt lat="44.66365" lon="5.88965">
        <ele>1962.19</ele>
        <time>2018-08-10T07:55:08Z</time>
      </trkpt>
      <trkpt lat="44.66356" lon="5.88966">
        <ele>1962.57</ele>
        <time>2018-08-10T07:55:16Z</time>
      </trkpt>
      <trkpt lat="44.66337" lon="5.88972">
        <ele>1962.02</ele>
        <time>2018-08-10T07:55:35Z</time>
      </trkpt>
      <trkpt lat="44.66333" lon="5.88973">
        <ele>1961.75</ele>
        <time>2018-08-10T07:55:39Z</time>
      </trkpt>
      <trkpt lat="44.6633" lon="5.88978">
        <ele>1961.47</ele>
        <time>2018-08-10T07:55:54Z</time>
      </trkpt>
      <trkpt lat="44.66331" lon="5.88978">
        <ele>1961.76</ele>
        <time>2018-08-10T07:56:09Z</time>
      </trkpt>
      <trkpt lat="44.66337" lon="5.88988">
        <ele>1961.75</ele>
        <time>2018-08-10T07:56:18Z</time>
      </trkpt>
      <trkpt lat="44.66341" lon="5.88992">
        <ele>1961.75</ele>
        <time>2018-08-10T07:56:22Z</time>
      </trkpt>
      <trkpt lat="44.66346" lon="5.8901">
        <ele>1962.86</ele>
        <time>2018-08-10T07:56:35Z</time>
      </trkpt>
      <trkpt lat="44.66341" lon="5.8903">
        <ele>1963.07</ele>
        <time>2018-08-10T07:56:48Z</time>
      </trkpt>
      <trkpt lat="44.66342" lon="5.89035">
        <ele>1963.08</ele>
        <time>2018-08-10T07:56:51Z</time>
      </trkpt>
      <trkpt lat="44.66343" lon="5.89041">
        <ele>1963.13</ele>
        <time>2018-08-10T07:56:57Z</time>
      </trkpt>
      <trkpt lat="44.66345" lon="5.89045">
        <ele>1963.19</ele>
        <time>2018-08-10T07:57:01Z</time>
      </trkpt>
      <trkpt lat="44.66345" lon="5.8905">
        <ele>1963.06</ele>
        <time>2018-08-10T07:57:10Z</time>
      </trkpt>
      <trkpt lat="44.66346" lon="5.89061">
        <ele>1962.42</ele>
        <time>2018-08-10T07:57:18Z</time>
      </trkpt>
      <trkpt lat="44.6635" lon="5.8907">
        <ele>1961.74</ele>
        <time>2018-08-10T07:57:25Z</time>
      </trkpt>
      <trkpt lat="44.6635" lon="5.89074">
        <ele>1961.5</ele>
        <time>2018-08-10T07:57:28Z</time>
      </trkpt>
      <trkpt lat="44.66353" lon="5.8908">
        <ele>1960.94</ele>
        <time>2018-08-10T07:57:33Z</time>
      </trkpt>
      <trkpt lat="44.66358" lon="5.89085">
        <ele>1960.13</ele>
        <time>2018-08-10T07:57:39Z</time>
      </trkpt>
      <trkpt lat="44.66367" lon="5.89092">
        <ele>1959.83</ele>
        <time>2018-08-10T07:57:52Z</time>
      </trkpt>
      <trkpt lat="44.66374" lon="5.89091">
        <ele>1959.24</ele>
        <time>2018-08-10T07:58:06Z</time>
      </trkpt>
      <trkpt lat="44.66381" lon="5.89094">
        <ele>1958.54</ele>
        <time>2018-08-10T07:58:25Z</time>
      </trkpt>
      <trkpt lat="44.66407" lon="5.89097">
        <ele>1955.47</ele>
        <time>2018-08-10T07:58:48Z</time>
      </trkpt>
      <trkpt lat="44.66421" lon="5.891">
        <ele>1954.65</ele>
        <time>2018-08-10T07:59:00Z</time>
      </trkpt>
      <trkpt lat="44.66435" lon="5.89105">
        <ele>1952.99</ele>
        <time>2018-08-10T07:59:13Z</time>
      </trkpt>
      <trkpt lat="44.66451" lon="5.89111">
        <ele>1949.9</ele>
        <time>2018-08-10T07:59:28Z</time>
      </trkpt>
      <trkpt lat="44.66469" lon="5.89119">
        <ele>1947.12</ele>
        <time>2018-08-10T07:59:46Z</time>
      </trkpt>
      <trkpt lat="44.6647" lon="5.8912">
        <ele>1945.86</ele>
        <time>2018-08-10T07:59:57Z</time>
      </trkpt>
      <trkpt lat="44.66475" lon="5.8912">
        <ele>1945.62</ele>
        <time>2018-08-10T08:00:02Z</time>
      </trkpt>
      <trkpt lat="44.66497" lon="5.89118">
        <ele>1943.71</ele>
        <time>2018-08-10T08:00:20Z</time>
      </trkpt>
      <trkpt lat="44.66511" lon="5.89122">
        <ele>1941.81</ele>
        <time>2018-08-10T08:00:34Z</time>
      </trkpt>
      <trkpt lat="44.66517" lon="5.89122">
        <ele>1940.97</ele>
        <time>2018-08-10T08:00:39Z</time>
      </trkpt>
      <trkpt lat="44.66528" lon="5.89121">
        <ele>1940.14</ele>
        <time>2018-08-10T08:00:47Z</time>
      </trkpt>
      <trkpt lat="44.66535" lon="5.89141">
        <ele>1937.23</ele>
        <time>2018-08-10T08:01:07Z</time>
      </trkpt>
      <trkpt lat="44.66529" lon="5.89165">
        <ele>1934.19</ele>
        <time>2018-08-10T08:01:24Z</time>
      </trkpt>
      <trkpt lat="44.66534" lon="5.89189">
        <ele>1931.14</ele>
        <time>2018-08-10T08:01:44Z</time>
      </trkpt>
      <trkpt lat="44.66541" lon="5.89212">
        <ele>1929.33</ele>
        <time>2018-08-10T08:02:03Z</time>
      </trkpt>
      <trkpt lat="44.66547" lon="5.89224">
        <ele>1927.24</ele>
        <time>2018-08-10T08:02:25Z</time>
      </trkpt>
      <trkpt lat="44.66548" lon="5.89224">
        <ele>1927.11</ele>
        <time>2018-08-10T08:02:52Z</time>
      </trkpt>
      <trkpt lat="44.6655" lon="5.89237">
        <ele>1926.29</ele>
        <time>2018-08-10T08:03:20Z</time>
      </trkpt>
      <trkpt lat="44.66548" lon="5.89241">
        <ele>1925.48</ele>
        <time>2018-08-10T08:03:27Z</time>
      </trkpt>
      <trkpt lat="44.66542" lon="5.8925">
        <ele>1924.85</ele>
        <time>2018-08-10T08:03:41Z</time>
      </trkpt>
      <trkpt lat="44.66545" lon="5.8925">
        <ele>1925.11</ele>
        <time>2018-08-10T08:03:45Z</time>
      </trkpt>
      <trkpt lat="44.66562" lon="5.89266">
        <ele>1924.08</ele>
        <time>2018-08-10T08:04:00Z</time>
      </trkpt>
      <trkpt lat="44.66564" lon="5.89268">
        <ele>1923.7</ele>
        <time>2018-08-10T08:04:02Z</time>
      </trkpt>
      <trkpt lat="44.66568" lon="5.89274">
        <ele>1922.64</ele>
        <time>2018-08-10T08:04:06Z</time>
      </trkpt>
      <trkpt lat="44.66587" lon="5.89296">
        <ele>1919.69</ele>
        <time>2018-08-10T08:04:24Z</time>
      </trkpt>
      <trkpt lat="44.66598" lon="5.8932">
        <ele>1917</ele>
        <time>2018-08-10T08:04:43Z</time>
      </trkpt>
      <trkpt lat="44.66605" lon="5.89349">
        <ele>1913.98</ele>
        <time>2018-08-10T08:05:01Z</time>
      </trkpt>
      <trkpt lat="44.66609" lon="5.89376">
        <ele>1910.91</ele>
        <time>2018-08-10T08:05:19Z</time>
      </trkpt>
      <trkpt lat="44.66607" lon="5.89389">
        <ele>1908.22</ele>
        <time>2018-08-10T08:05:31Z</time>
      </trkpt>
      <trkpt lat="44.66606" lon="5.89411">
        <ele>1905.34</ele>
        <time>2018-08-10T08:05:46Z</time>
      </trkpt>
      <trkpt lat="44.66606" lon="5.89429">
        <ele>1902.92</ele>
        <time>2018-08-10T08:06:03Z</time>
      </trkpt>
      <trkpt lat="44.66606" lon="5.89437">
        <ele>1900.69</ele>
        <time>2018-08-10T08:06:22Z</time>
      </trkpt>
      <trkpt lat="44.66607" lon="5.89445">
        <ele>1900.15</ele>
        <time>2018-08-10T08:06:31Z</time>
      </trkpt>
      <trkpt lat="44.66608" lon="5.89468">
        <ele>1897.04</ele>
        <time>2018-08-10T08:06:48Z</time>
      </trkpt>
      <trkpt lat="44.66607" lon="5.89486">
        <ele>1893.93</ele>
        <time>2018-08-10T08:07:01Z</time>
      </trkpt>
      <trkpt lat="44.66605" lon="5.895">
        <ele>1890.88</ele>
        <time>2018-08-10T08:07:17Z</time>
      </trkpt>
      <trkpt lat="44.66606" lon="5.89509">
        <ele>1889.85</ele>
        <time>2018-08-10T08:07:23Z</time>
      </trkpt>
      <trkpt lat="44.66609" lon="5.8953">
        <ele>1886.71</ele>
        <time>2018-08-10T08:07:41Z</time>
      </trkpt>
      <trkpt lat="44.66609" lon="5.89533">
        <ele>1886.57</ele>
        <time>2018-08-10T08:07:43Z</time>
      </trkpt>
      <trkpt lat="44.66621" lon="5.89557">
        <ele>1883.74</ele>
        <time>2018-08-10T08:08:03Z</time>
      </trkpt>
      <trkpt lat="44.66629" lon="5.89564">
        <ele>1881.61</ele>
        <time>2018-08-10T08:08:20Z</time>
      </trkpt>
      <trkpt lat="44.66645" lon="5.89579">
        <ele>1879.8</ele>
        <time>2018-08-10T08:08:39Z</time>
      </trkpt>
      <trkpt lat="44.66653" lon="5.89595">
        <ele>1877.64</ele>
        <time>2018-08-10T08:08:56Z</time>
      </trkpt>
      <trkpt lat="44.6666" lon="5.89617">
        <ele>1875.11</ele>
        <time>2018-08-10T08:09:14Z</time>
      </trkpt>
      <trkpt lat="44.66659" lon="5.89632">
        <ele>1873.29</ele>
        <time>2018-08-10T08:09:28Z</time>
      </trkpt>
      <trkpt lat="44.6666" lon="5.89654">
        <ele>1871.44</ele>
        <time>2018-08-10T08:09:44Z</time>
      </trkpt>
      <trkpt lat="44.66661" lon="5.89658">
        <ele>1871.28</ele>
        <time>2018-08-10T08:09:47Z</time>
      </trkpt>
      <trkpt lat="44.66664" lon="5.89664">
        <ele>1870.61</ele>
        <time>2018-08-10T08:09:51Z</time>
      </trkpt>
      <trkpt lat="44.66667" lon="5.89678">
        <ele>1869.43</ele>
        <time>2018-08-10T08:10:10Z</time>
      </trkpt>
      <trkpt lat="44.66672" lon="5.89701">
        <ele>1867.78</ele>
        <time>2018-08-10T08:10:25Z</time>
      </trkpt>
      <trkpt lat="44.66682" lon="5.89732">
        <ele>1866.31</ele>
        <time>2018-08-10T08:10:48Z</time>
      </trkpt>
      <trkpt lat="44.66685" lon="5.89745">
        <ele>1865.82</ele>
        <time>2018-08-10T08:11:01Z</time>
      </trkpt>
      <trkpt lat="44.66686" lon="5.89753">
        <ele>1865.71</ele>
        <time>2018-08-10T08:11:06Z</time>
      </trkpt>
      <trkpt lat="44.66688" lon="5.89761">
        <ele>1865.43</ele>
        <time>2018-08-10T08:11:10Z</time>
      </trkpt>
      <trkpt lat="44.66698" lon="5.89791">
        <ele>1865.36</ele>
        <time>2018-08-10T08:11:28Z</time>
      </trkpt>
      <trkpt lat="44.66703" lon="5.8982">
        <ele>1865.03</ele>
        <time>2018-08-10T08:11:45Z</time>
      </trkpt>
      <trkpt lat="44.66708" lon="5.89847">
        <ele>1863.96</ele>
        <time>2018-08-10T08:12:02Z</time>
      </trkpt>
      <trkpt lat="44.66708" lon="5.89854">
        <ele>1863.62</ele>
        <time>2018-08-10T08:12:06Z</time>
      </trkpt>
      <trkpt lat="44.66709" lon="5.89863">
        <ele>1862.88</ele>
        <time>2018-08-10T08:12:12Z</time>
      </trkpt>
      <trkpt lat="44.66707" lon="5.89893">
        <ele>1861.8</ele>
        <time>2018-08-10T08:12:30Z</time>
      </trkpt>
      <trkpt lat="44.66704" lon="5.89913">
        <ele>1860.68</ele>
        <time>2018-08-10T08:12:45Z</time>
      </trkpt>
      <trkpt lat="44.66702" lon="5.89935">
        <ele>1859.71</ele>
        <time>2018-08-10T08:13:01Z</time>
      </trkpt>
      <trkpt lat="44.66703" lon="5.89946">
        <ele>1858.6</ele>
        <time>2018-08-10T08:13:17Z</time>
      </trkpt>
      <trkpt lat="44.66711" lon="5.89946">
        <ele>1857.33</ele>
        <time>2018-08-10T08:13:42Z</time>
      </trkpt>
      <trkpt lat="44.66726" lon="5.89942">
        <ele>1855.35</ele>
        <time>2018-08-10T08:13:58Z</time>
      </trkpt>
      <trkpt lat="44.66733" lon="5.89942">
        <ele>1854.33</ele>
        <time>2018-08-10T08:14:05Z</time>
      </trkpt>
      <trkpt lat="44.66737" lon="5.89938">
        <ele>1854.16</ele>
        <time>2018-08-10T08:14:09Z</time>
      </trkpt>
      <trkpt lat="44.66744" lon="5.89937">
        <ele>1853.67</ele>
        <time>2018-08-10T08:14:15Z</time>
      </trkpt>
      <trkpt lat="44.66765" lon="5.8995">
        <ele>1850.61</ele>
        <time>2018-08-10T08:14:32Z</time>
      </trkpt>
      <trkpt lat="44.66783" lon="5.89963">
        <ele>1847.93</ele>
        <time>2018-08-10T08:14:46Z</time>
      </trkpt>
      <trkpt lat="44.66797" lon="5.89974">
        <ele>1847.27</ele>
        <time>2018-08-10T08:14:57Z</time>
      </trkpt>
      <trkpt lat="44.66813" lon="5.89987">
        <ele>1845.94</ele>
        <time>2018-08-10T08:15:11Z</time>
      </trkpt>
      <trkpt lat="44.66819" lon="5.89994">
        <ele>1845.29</ele>
        <time>2018-08-10T08:15:17Z</time>
      </trkpt>
      <trkpt lat="44.66825" lon="5.90012">
        <ele>1844.06</ele>
        <time>2018-08-10T08:15:30Z</time>
      </trkpt>
      <trkpt lat="44.6683" lon="5.90035">
        <ele>1842.76</ele>
        <time>2018-08-10T08:15:43Z</time>
      </trkpt>
      <trkpt lat="44.66833" lon="5.90044">
        <ele>1842.09</ele>
        <time>2018-08-10T08:15:50Z</time>
      </trkpt>
      <trkpt lat="44.66833" lon="5.90044">
        <ele>1841.98</ele>
        <time>2018-08-10T08:15:51Z</time>
      </trkpt>
      <trkpt lat="44.66837" lon="5.90072">
        <ele>1840.96</ele>
        <time>2018-08-10T08:16:06Z</time>
      </trkpt>
      <trkpt lat="44.66848" lon="5.90093">
        <ele>1839.79</ele>
        <time>2018-08-10T08:16:22Z</time>
      </trkpt>
      <trkpt lat="44.66846" lon="5.90101">
        <ele>1839.63</ele>
        <time>2018-08-10T08:16:28Z</time>
      </trkpt>
      <trkpt lat="44.6684" lon="5.90118">
        <ele>1839.27</ele>
        <time>2018-08-10T08:16:44Z</time>
      </trkpt>
      <trkpt lat="44.66843" lon="5.90124">
        <ele>1839.24</ele>
        <time>2018-08-10T08:17:01Z</time>
      </trkpt>
      <trkpt lat="44.66844" lon="5.90121">
        <ele>1839.18</ele>
        <time>2018-08-10T08:17:19Z</time>
      </trkpt>
      <trkpt lat="44.66843" lon="5.90122">
        <ele>1839.13</ele>
        <time>2018-08-10T08:17:32Z</time>
      </trkpt>
      <trkpt lat="44.66843" lon="5.90124">
        <ele>1839.13</ele>
        <time>2018-08-10T08:17:33Z</time>
      </trkpt>
      <trkpt lat="44.66845" lon="5.90126">
        <ele>1839.13</ele>
        <time>2018-08-10T08:17:35Z</time>
      </trkpt>
      <trkpt lat="44.66847" lon="5.90124">
        <ele>1839.13</ele>
        <time>2018-08-10T08:17:36Z</time>
      </trkpt>
      <trkpt lat="44.66846" lon="5.90126">
        <ele>1839.13</ele>
        <time>2018-08-10T08:17:37Z</time>
      </trkpt>
      <trkpt lat="44.66846" lon="5.90126">
        <ele>1839.12</ele>
        <time>2018-08-10T08:17:38Z</time>
      </trkpt>
      <trkpt lat="44.66847" lon="5.90127">
        <ele>1839.12</ele>
        <time>2018-08-10T08:17:39Z</time>
      </trkpt>
      <trkpt lat="44.66845" lon="5.90129">
        <ele>1839.12</ele>
        <time>2018-08-10T08:17:40Z</time>
      </trkpt>
      <trkpt lat="44.66843" lon="5.9013">
        <ele>1839.12</ele>
        <time>2018-08-10T08:17:41Z</time>
      </trkpt>
      <trkpt lat="44.66833" lon="5.90149">
        <ele>1838.89</ele>
        <time>2018-08-10T08:17:55Z</time>
      </trkpt>
      <trkpt lat="44.6683" lon="5.90154">
        <ele>1838.93</ele>
        <time>2018-08-10T08:18:00Z</time>
      </trkpt>
      <trkpt lat="44.66828" lon="5.90155">
        <ele>1838.96</ele>
        <time>2018-08-10T08:18:01Z</time>
      </trkpt>
      <trkpt lat="44.66826" lon="5.90156">
        <ele>1838.98</ele>
        <time>2018-08-10T08:18:03Z</time>
      </trkpt>
      <trkpt lat="44.66826" lon="5.90157">
        <ele>1839</ele>
        <time>2018-08-10T08:18:04Z</time>
      </trkpt>
      <trkpt lat="44.6682" lon="5.90164">
        <ele>1839.09</ele>
        <time>2018-08-10T08:18:10Z</time>
      </trkpt>
      <trkpt lat="44.6682" lon="5.90165">
        <ele>1839.1</ele>
        <time>2018-08-10T08:18:11Z</time>
      </trkpt>
      <trkpt lat="44.6682" lon="5.90168">
        <ele>1839.21</ele>
        <time>2018-08-10T08:18:13Z</time>
      </trkpt>
      <trkpt lat="44.66819" lon="5.90169">
        <ele>1839.31</ele>
        <time>2018-08-10T08:18:14Z</time>
      </trkpt>
      <trkpt lat="44.66819" lon="5.9017">
        <ele>1839.36</ele>
        <time>2018-08-10T08:18:15Z</time>
      </trkpt>
      <trkpt lat="44.66809" lon="5.90183">
        <ele>1840.32</ele>
        <time>2018-08-10T08:18:31Z</time>
      </trkpt>
      <trkpt lat="44.66808" lon="5.90184">
        <ele>1840.34</ele>
        <time>2018-08-10T08:18:32Z</time>
      </trkpt>
      <trkpt lat="44.66807" lon="5.90185">
        <ele>1840.35</ele>
        <time>2018-08-10T08:18:33Z</time>
      </trkpt>
      <trkpt lat="44.668" lon="5.90186">
        <ele>1840.74</ele>
        <time>2018-08-10T08:18:45Z</time>
      </trkpt>
      <trkpt lat="44.66796" lon="5.90197">
        <ele>1840.91</ele>
        <time>2018-08-10T08:18:56Z</time>
      </trkpt>
      <trkpt lat="44.66795" lon="5.90198">
        <ele>1840.94</ele>
        <time>2018-08-10T08:18:57Z</time>
      </trkpt>
      <trkpt lat="44.66795" lon="5.90202">
        <ele>1841.03</ele>
        <time>2018-08-10T08:19:00Z</time>
      </trkpt>
      <trkpt lat="44.66794" lon="5.90206">
        <ele>1841.1</ele>
        <time>2018-08-10T08:19:03Z</time>
      </trkpt>
      <trkpt lat="44.66783" lon="5.90222">
        <ele>1842.35</ele>
        <time>2018-08-10T08:19:19Z</time>
      </trkpt>
      <trkpt lat="44.66772" lon="5.90238">
        <ele>1843.94</ele>
        <time>2018-08-10T08:19:34Z</time>
      </trkpt>
      <trkpt lat="44.66769" lon="5.90242">
        <ele>1844.36</ele>
        <time>2018-08-10T08:19:39Z</time>
      </trkpt>
      <trkpt lat="44.66765" lon="5.9025">
        <ele>1845.32</ele>
        <time>2018-08-10T08:19:46Z</time>
      </trkpt>
      <trkpt lat="44.66763" lon="5.90253">
        <ele>1845.76</ele>
        <time>2018-08-10T08:19:49Z</time>
      </trkpt>
      <trkpt lat="44.66762" lon="5.90254">
        <ele>1845.85</ele>
        <time>2018-08-10T08:19:50Z</time>
      </trkpt>
      <trkpt lat="44.66759" lon="5.90266">
        <ele>1846.74</ele>
        <time>2018-08-10T08:19:59Z</time>
      </trkpt>
      <trkpt lat="44.66759" lon="5.90268">
        <ele>1846.82</ele>
        <time>2018-08-10T08:20:00Z</time>
      </trkpt>
      <trkpt lat="44.6676" lon="5.90278">
        <ele>1847.42</ele>
        <time>2018-08-10T08:20:05Z</time>
      </trkpt>
      <trkpt lat="44.66761" lon="5.90279">
        <ele>1847.51</ele>
        <time>2018-08-10T08:20:06Z</time>
      </trkpt>
      <trkpt lat="44.66759" lon="5.90284">
        <ele>1848.06</ele>
        <time>2018-08-10T08:20:20Z</time>
      </trkpt>
      <trkpt lat="44.66775" lon="5.90296">
        <ele>1848.13</ele>
        <time>2018-08-10T08:20:40Z</time>
      </trkpt>
      <trkpt lat="44.66792" lon="5.90316">
        <ele>1848.08</ele>
        <time>2018-08-10T08:20:59Z</time>
      </trkpt>
      <trkpt lat="44.66803" lon="5.9033">
        <ele>1847.26</ele>
        <time>2018-08-10T08:21:14Z</time>
      </trkpt>
      <trkpt lat="44.66804" lon="5.90331">
        <ele>1847.26</ele>
        <time>2018-08-10T08:21:15Z</time>
      </trkpt>
      <trkpt lat="44.66808" lon="5.90334">
        <ele>1846.84</ele>
        <time>2018-08-10T08:21:18Z</time>
      </trkpt>
      <trkpt lat="44.66827" lon="5.90358">
        <ele>1845.2</ele>
        <time>2018-08-10T08:21:41Z</time>
      </trkpt>
      <trkpt lat="44.66842" lon="5.90375">
        <ele>1843.41</ele>
        <time>2018-08-10T08:21:58Z</time>
      </trkpt>
      <trkpt lat="44.66856" lon="5.90391">
        <ele>1841.45</ele>
        <time>2018-08-10T08:22:16Z</time>
      </trkpt>
      <trkpt lat="44.66875" lon="5.90408">
        <ele>1839.6</ele>
        <time>2018-08-10T08:22:35Z</time>
      </trkpt>
      <trkpt lat="44.66891" lon="5.90414">
        <ele>1837.9</ele>
        <time>2018-08-10T08:22:53Z</time>
      </trkpt>
      <trkpt lat="44.66905" lon="5.90421">
        <ele>1836.42</ele>
        <time>2018-08-10T08:23:09Z</time>
      </trkpt>
      <trkpt lat="44.66924" lon="5.90434">
        <ele>1835.24</ele>
        <time>2018-08-10T08:23:27Z</time>
      </trkpt>
      <trkpt lat="44.66929" lon="5.90435">
        <ele>1834.65</ele>
        <time>2018-08-10T08:23:42Z</time>
      </trkpt>
      <trkpt lat="44.6693" lon="5.90436">
        <ele>1834.61</ele>
        <time>2018-08-10T08:23:44Z</time>
      </trkpt>
      <trkpt lat="44.66934" lon="5.90438">
        <ele>1834.55</ele>
        <time>2018-08-10T08:23:48Z</time>
      </trkpt>
      <trkpt lat="44.66942" lon="5.90445">
        <ele>1834.5</ele>
        <time>2018-08-10T08:23:57Z</time>
      </trkpt>
      <trkpt lat="44.66958" lon="5.90455">
        <ele>1834.42</ele>
        <time>2018-08-10T08:24:14Z</time>
      </trkpt>
      <trkpt lat="44.66973" lon="5.90465">
        <ele>1834.02</ele>
        <time>2018-08-10T08:24:30Z</time>
      </trkpt>
      <trkpt lat="44.66993" lon="5.90476">
        <ele>1833.16</ele>
        <time>2018-08-10T08:24:49Z</time>
      </trkpt>
      <trkpt lat="44.67015" lon="5.90488">
        <ele>1831.28</ele>
        <time>2018-08-10T08:25:10Z</time>
      </trkpt>
      <trkpt lat="44.67029" lon="5.90492">
        <ele>1830.47</ele>
        <time>2018-08-10T08:25:25Z</time>
      </trkpt>
      <trkpt lat="44.67045" lon="5.90497">
        <ele>1829.62</ele>
        <time>2018-08-10T08:25:38Z</time>
      </trkpt>
      <trkpt lat="44.67058" lon="5.90502">
        <ele>1829.5</ele>
        <time>2018-08-10T08:25:55Z</time>
      </trkpt>
      <trkpt lat="44.67059" lon="5.905">
        <ele>1829.45</ele>
        <time>2018-08-10T08:25:59Z</time>
      </trkpt>
      <trkpt lat="44.67058" lon="5.90491">
        <ele>1829.57</ele>
        <time>2018-08-10T08:26:17Z</time>
      </trkpt>
      <trkpt lat="44.6706" lon="5.90505">
        <ele>1829.62</ele>
        <time>2018-08-10T08:26:29Z</time>
      </trkpt>
      <trkpt lat="44.67083" lon="5.90524">
        <ele>1828.29</ele>
        <time>2018-08-10T08:26:49Z</time>
      </trkpt>
      <trkpt lat="44.67092" lon="5.9055">
        <ele>1826.63</ele>
        <time>2018-08-10T08:27:05Z</time>
      </trkpt>
      <trkpt lat="44.67093" lon="5.90558">
        <ele>1826.48</ele>
        <time>2018-08-10T08:27:10Z</time>
      </trkpt>
      <trkpt lat="44.67095" lon="5.90568">
        <ele>1825.78</ele>
        <time>2018-08-10T08:27:16Z</time>
      </trkpt>
      <trkpt lat="44.67095" lon="5.90602">
        <ele>1824.02</ele>
        <time>2018-08-10T08:27:36Z</time>
      </trkpt>
      <trkpt lat="44.67094" lon="5.90606">
        <ele>1824.03</ele>
        <time>2018-08-10T08:27:51Z</time>
      </trkpt>
      <trkpt lat="44.67097" lon="5.9061">
        <ele>1824.06</ele>
        <time>2018-08-10T08:28:01Z</time>
      </trkpt>
      <trkpt lat="44.67099" lon="5.90611">
        <ele>1824.05</ele>
        <time>2018-08-10T08:28:03Z</time>
      </trkpt>
      <trkpt lat="44.6711" lon="5.90622">
        <ele>1822.4</ele>
        <time>2018-08-10T08:28:20Z</time>
      </trkpt>
      <trkpt lat="44.67111" lon="5.90625">
        <ele>1822.23</ele>
        <time>2018-08-10T08:28:22Z</time>
      </trkpt>
      <trkpt lat="44.67118" lon="5.90635">
        <ele>1821.76</ele>
        <time>2018-08-10T08:28:30Z</time>
      </trkpt>
      <trkpt lat="44.67135" lon="5.90654">
        <ele>1818.88</ele>
        <time>2018-08-10T08:28:48Z</time>
      </trkpt>
      <trkpt lat="44.67153" lon="5.90668">
        <ele>1815.74</ele>
        <time>2018-08-10T08:29:04Z</time>
      </trkpt>
      <trkpt lat="44.67168" lon="5.90679">
        <ele>1813.1</ele>
        <time>2018-08-10T08:29:18Z</time>
      </trkpt>
      <trkpt lat="44.67184" lon="5.90692">
        <ele>1810.43</ele>
        <time>2018-08-10T08:29:34Z</time>
      </trkpt>
      <trkpt lat="44.67184" lon="5.90693">
        <ele>1810.34</ele>
        <time>2018-08-10T08:29:35Z</time>
      </trkpt>
      <trkpt lat="44.67185" lon="5.90696">
        <ele>1810.1</ele>
        <time>2018-08-10T08:29:37Z</time>
      </trkpt>
      <trkpt lat="44.67187" lon="5.90697">
        <ele>1809.93</ele>
        <time>2018-08-10T08:29:38Z</time>
      </trkpt>
      <trkpt lat="44.67194" lon="5.90706">
        <ele>1808.57</ele>
        <time>2018-08-10T08:29:45Z</time>
      </trkpt>
      <trkpt lat="44.67195" lon="5.90707">
        <ele>1808.36</ele>
        <time>2018-08-10T08:29:46Z</time>
      </trkpt>
      <trkpt lat="44.67196" lon="5.9071">
        <ele>1808.16</ele>
        <time>2018-08-10T08:29:47Z</time>
      </trkpt>
      <trkpt lat="44.67197" lon="5.90711">
        <ele>1808.03</ele>
        <time>2018-08-10T08:29:48Z</time>
      </trkpt>
      <trkpt lat="44.67198" lon="5.90712">
        <ele>1807.94</ele>
        <time>2018-08-10T08:29:49Z</time>
      </trkpt>
      <trkpt lat="44.67208" lon="5.90733">
        <ele>1805.48</ele>
        <time>2018-08-10T08:30:01Z</time>
      </trkpt>
      <trkpt lat="44.67212" lon="5.90753">
        <ele>1802.43</ele>
        <time>2018-08-10T08:30:15Z</time>
      </trkpt>
      <trkpt lat="44.6722" lon="5.90761">
        <ele>1800.11</ele>
        <time>2018-08-10T08:30:28Z</time>
      </trkpt>
      <trkpt lat="44.67236" lon="5.90766">
        <ele>1798.19</ele>
        <time>2018-08-10T08:30:44Z</time>
      </trkpt>
      <trkpt lat="44.67237" lon="5.90775">
        <ele>1796.57</ele>
        <time>2018-08-10T08:30:51Z</time>
      </trkpt>
      <trkpt lat="44.67241" lon="5.90779">
        <ele>1795.46</ele>
        <time>2018-08-10T08:30:56Z</time>
      </trkpt>
      <trkpt lat="44.67249" lon="5.90774">
        <ele>1794.15</ele>
        <time>2018-08-10T08:31:05Z</time>
      </trkpt>
      <trkpt lat="44.67255" lon="5.90774">
        <ele>1793.96</ele>
        <time>2018-08-10T08:31:13Z</time>
      </trkpt>
      <trkpt lat="44.67263" lon="5.90784">
        <ele>1793.84</ele>
        <time>2018-08-10T08:31:23Z</time>
      </trkpt>
      <trkpt lat="44.67276" lon="5.90796">
        <ele>1792.51</ele>
        <time>2018-08-10T08:31:40Z</time>
      </trkpt>
      <trkpt lat="44.67276" lon="5.90798">
        <ele>1792.3</ele>
        <time>2018-08-10T08:31:41Z</time>
      </trkpt>
      <trkpt lat="44.67279" lon="5.90801">
        <ele>1791.75</ele>
        <time>2018-08-10T08:31:44Z</time>
      </trkpt>
      <trkpt lat="44.67289" lon="5.90822">
        <ele>1790.45</ele>
        <time>2018-08-10T08:31:58Z</time>
      </trkpt>
      <trkpt lat="44.67295" lon="5.90839">
        <ele>1789.87</ele>
        <time>2018-08-10T08:32:11Z</time>
      </trkpt>
      <trkpt lat="44.67299" lon="5.90845">
        <ele>1789.75</ele>
        <time>2018-08-10T08:32:15Z</time>
      </trkpt>
      <trkpt lat="44.67315" lon="5.90855">
        <ele>1788.05</ele>
        <time>2018-08-10T08:32:32Z</time>
      </trkpt>
      <trkpt lat="44.67317" lon="5.90857">
        <ele>1787.99</ele>
        <time>2018-08-10T08:32:34Z</time>
      </trkpt>
      <trkpt lat="44.67329" lon="5.90867">
        <ele>1788.42</ele>
        <time>2018-08-10T08:32:49Z</time>
      </trkpt>
      <trkpt lat="44.67337" lon="5.90875">
        <ele>1788.46</ele>
        <time>2018-08-10T08:32:57Z</time>
      </trkpt>
      <trkpt lat="44.67344" lon="5.90879">
        <ele>1788.34</ele>
        <time>2018-08-10T08:33:04Z</time>
      </trkpt>
      <trkpt lat="44.6735" lon="5.90885">
        <ele>1788.15</ele>
        <time>2018-08-10T08:33:10Z</time>
      </trkpt>
      <trkpt lat="44.67353" lon="5.90886">
        <ele>1787.45</ele>
        <time>2018-08-10T08:33:17Z</time>
      </trkpt>
      <trkpt lat="44.67358" lon="5.90888">
        <ele>1787.27</ele>
        <time>2018-08-10T08:33:27Z</time>
      </trkpt>
      <trkpt lat="44.67353" lon="5.90889">
        <ele>1786.79</ele>
        <time>2018-08-10T08:34:02Z</time>
      </trkpt>
      <trkpt lat="44.6736" lon="5.90905">
        <ele>1785.53</ele>
        <time>2018-08-10T08:34:19Z</time>
      </trkpt>
      <trkpt lat="44.67362" lon="5.90907">
        <ele>1784.6</ele>
        <time>2018-08-10T08:34:25Z</time>
      </trkpt>
      <trkpt lat="44.67363" lon="5.90909">
        <ele>1784.55</ele>
        <time>2018-08-10T08:34:27Z</time>
      </trkpt>
      <trkpt lat="44.67377" lon="5.90925">
        <ele>1782.88</ele>
        <time>2018-08-10T08:34:43Z</time>
      </trkpt>
      <trkpt lat="44.67387" lon="5.90929">
        <ele>1780.54</ele>
        <time>2018-08-10T08:34:59Z</time>
      </trkpt>
      <trkpt lat="44.6739" lon="5.90928">
        <ele>1780.16</ele>
        <time>2018-08-10T08:35:01Z</time>
      </trkpt>
      <trkpt lat="44.67393" lon="5.90927">
        <ele>1779.4</ele>
        <time>2018-08-10T08:35:04Z</time>
      </trkpt>
      <trkpt lat="44.6741" lon="5.90914">
        <ele>1776.49</ele>
        <time>2018-08-10T08:35:22Z</time>
      </trkpt>
      <trkpt lat="44.67432" lon="5.90906">
        <ele>1774.17</ele>
        <time>2018-08-10T08:35:39Z</time>
      </trkpt>
      <trkpt lat="44.67453" lon="5.90899">
        <ele>1772.25</ele>
        <time>2018-08-10T08:35:57Z</time>
      </trkpt>
      <trkpt lat="44.67474" lon="5.90892">
        <ele>1771.2</ele>
        <time>2018-08-10T08:36:13Z</time>
      </trkpt>
      <trkpt lat="44.67498" lon="5.90891">
        <ele>1770.94</ele>
        <time>2018-08-10T08:36:31Z</time>
      </trkpt>
      <trkpt lat="44.67519" lon="5.90901">
        <ele>1770.52</ele>
        <time>2018-08-10T08:36:48Z</time>
      </trkpt>
      <trkpt lat="44.67538" lon="5.90909">
        <ele>1769.27</ele>
        <time>2018-08-10T08:37:04Z</time>
      </trkpt>
      <trkpt lat="44.67555" lon="5.90918">
        <ele>1767.55</ele>
        <time>2018-08-10T08:37:20Z</time>
      </trkpt>
      <trkpt lat="44.67558" lon="5.9092">
        <ele>1766.92</ele>
        <time>2018-08-10T08:37:23Z</time>
      </trkpt>
      <trkpt lat="44.67574" lon="5.90931">
        <ele>1765.3</ele>
        <time>2018-08-10T08:37:39Z</time>
      </trkpt>
      <trkpt lat="44.67578" lon="5.90929">
        <ele>1762.43</ele>
        <time>2018-08-10T08:37:55Z</time>
      </trkpt>
      <trkpt lat="44.67588" lon="5.9093">
        <ele>1762.23</ele>
        <time>2018-08-10T08:38:12Z</time>
      </trkpt>
      <trkpt lat="44.67595" lon="5.90918">
        <ele>1761.11</ele>
        <time>2018-08-10T08:38:23Z</time>
      </trkpt>
      <trkpt lat="44.67599" lon="5.90914">
        <ele>1760.14</ele>
        <time>2018-08-10T08:38:29Z</time>
      </trkpt>
      <trkpt lat="44.67612" lon="5.90906">
        <ele>1756.91</ele>
        <time>2018-08-10T08:38:45Z</time>
      </trkpt>
      <trkpt lat="44.67625" lon="5.90903">
        <ele>1753.88</ele>
        <time>2018-08-10T08:38:57Z</time>
      </trkpt>
      <trkpt lat="44.67638" lon="5.90901">
        <ele>1751.66</ele>
        <time>2018-08-10T08:39:11Z</time>
      </trkpt>
      <trkpt lat="44.67651" lon="5.90903">
        <ele>1749.32</ele>
        <time>2018-08-10T08:39:25Z</time>
      </trkpt>
      <trkpt lat="44.67677" lon="5.90907">
        <ele>1746.43</ele>
        <time>2018-08-10T08:39:48Z</time>
      </trkpt>
      <trkpt lat="44.6768" lon="5.90908">
        <ele>1745.94</ele>
        <time>2018-08-10T08:39:50Z</time>
      </trkpt>
      <trkpt lat="44.67687" lon="5.90927">
        <ele>1743.41</ele>
        <time>2018-08-10T08:40:03Z</time>
      </trkpt>
      <trkpt lat="44.67689" lon="5.90931">
        <ele>1742.8</ele>
        <time>2018-08-10T08:40:07Z</time>
      </trkpt>
      <trkpt lat="44.67687" lon="5.90934">
        <ele>1742.31</ele>
        <time>2018-08-10T08:40:10Z</time>
      </trkpt>
      <trkpt lat="44.6769" lon="5.90942">
        <ele>1741.72</ele>
        <time>2018-08-10T08:40:15Z</time>
      </trkpt>
      <trkpt lat="44.67694" lon="5.90945">
        <ele>1741.2</ele>
        <time>2018-08-10T08:40:19Z</time>
      </trkpt>
      <trkpt lat="44.67711" lon="5.90949">
        <ele>1738.65</ele>
        <time>2018-08-10T08:40:38Z</time>
      </trkpt>
      <trkpt lat="44.67722" lon="5.9096">
        <ele>1736.74</ele>
        <time>2018-08-10T08:40:51Z</time>
      </trkpt>
      <trkpt lat="44.67725" lon="5.90966">
        <ele>1734.21</ele>
        <time>2018-08-10T08:41:11Z</time>
      </trkpt>
      <trkpt lat="44.67735" lon="5.9097">
        <ele>1732.53</ele>
        <time>2018-08-10T08:41:37Z</time>
      </trkpt>
      <trkpt lat="44.67754" lon="5.90981">
        <ele>1729.42</ele>
        <time>2018-08-10T08:41:54Z</time>
      </trkpt>
      <trkpt lat="44.67762" lon="5.90994">
        <ele>1726.34</ele>
        <time>2018-08-10T08:42:09Z</time>
      </trkpt>
      <trkpt lat="44.6777" lon="5.9099">
        <ele>1723.28</ele>
        <time>2018-08-10T08:42:23Z</time>
      </trkpt>
      <trkpt lat="44.67777" lon="5.90978">
        <ele>1720.15</ele>
        <time>2018-08-10T08:42:39Z</time>
      </trkpt>
      <trkpt lat="44.67781" lon="5.90975">
        <ele>1718.77</ele>
        <time>2018-08-10T08:42:45Z</time>
      </trkpt>
      <trkpt lat="44.67791" lon="5.90972">
        <ele>1715.35</ele>
        <time>2018-08-10T08:42:59Z</time>
      </trkpt>
      <trkpt lat="44.67796" lon="5.90972">
        <ele>1714.38</ele>
        <time>2018-08-10T08:43:03Z</time>
      </trkpt>
      <trkpt lat="44.67803" lon="5.90971">
        <ele>1712.4</ele>
        <time>2018-08-10T08:43:11Z</time>
      </trkpt>
      <trkpt lat="44.67819" lon="5.90963">
        <ele>1709.28</ele>
        <time>2018-08-10T08:43:25Z</time>
      </trkpt>
      <trkpt lat="44.67836" lon="5.90962">
        <ele>1707.99</ele>
        <time>2018-08-10T08:43:40Z</time>
      </trkpt>
      <trkpt lat="44.67852" lon="5.90964">
        <ele>1705.42</ele>
        <time>2018-08-10T08:43:54Z</time>
      </trkpt>
      <trkpt lat="44.67855" lon="5.90968">
        <ele>1705.08</ele>
        <time>2018-08-10T08:43:57Z</time>
      </trkpt>
      <trkpt lat="44.67856" lon="5.90968">
        <ele>1704.87</ele>
        <time>2018-08-10T08:43:58Z</time>
      </trkpt>
      <trkpt lat="44.67858" lon="5.90969">
        <ele>1704.66</ele>
        <time>2018-08-10T08:43:59Z</time>
      </trkpt>
      <trkpt lat="44.6786" lon="5.9097">
        <ele>1704.2</ele>
        <time>2018-08-10T08:44:02Z</time>
      </trkpt>
      <trkpt lat="44.67862" lon="5.9097">
        <ele>1703.99</ele>
        <time>2018-08-10T08:44:03Z</time>
      </trkpt>
      <trkpt lat="44.67868" lon="5.90969">
        <ele>1702.56</ele>
        <time>2018-08-10T08:44:09Z</time>
      </trkpt>
      <trkpt lat="44.67869" lon="5.90968">
        <ele>1702.35</ele>
        <time>2018-08-10T08:44:10Z</time>
      </trkpt>
      <trkpt lat="44.6787" lon="5.90967">
        <ele>1702.05</ele>
        <time>2018-08-10T08:44:11Z</time>
      </trkpt>
      <trkpt lat="44.6787" lon="5.90967">
        <ele>1701.95</ele>
        <time>2018-08-10T08:44:12Z</time>
      </trkpt>
      <trkpt lat="44.67868" lon="5.90966">
        <ele>1701.7</ele>
        <time>2018-08-10T08:44:14Z</time>
      </trkpt>
      <trkpt lat="44.67872" lon="5.90967">
        <ele>1701.33</ele>
        <time>2018-08-10T08:44:29Z</time>
      </trkpt>
      <trkpt lat="44.67877" lon="5.90966">
        <ele>1701.26</ele>
        <time>2018-08-10T08:44:35Z</time>
      </trkpt>
      <trkpt lat="44.67869" lon="5.90967">
        <ele>1701.1</ele>
        <time>2018-08-10T08:44:47Z</time>
      </trkpt>
      <trkpt lat="44.6787" lon="5.90964">
        <ele>1701.06</ele>
        <time>2018-08-10T08:45:00Z</time>
      </trkpt>
      <trkpt lat="44.67869" lon="5.90963">
        <ele>1700.98</ele>
        <time>2018-08-10T08:45:11Z</time>
      </trkpt>
      <trkpt lat="44.67874" lon="5.90963">
        <ele>1700.99</ele>
        <time>2018-08-10T08:45:17Z</time>
      </trkpt>
      <trkpt lat="44.67876" lon="5.90961">
        <ele>1701.03</ele>
        <time>2018-08-10T08:45:20Z</time>
      </trkpt>
      <trkpt lat="44.67882" lon="5.90959">
        <ele>1700.66</ele>
        <time>2018-08-10T08:45:37Z</time>
      </trkpt>
      <trkpt lat="44.67882" lon="5.90958">
        <ele>1700.65</ele>
        <time>2018-08-10T08:45:38Z</time>
      </trkpt>
      <trkpt lat="44.67882" lon="5.90957">
        <ele>1700.65</ele>
        <time>2018-08-10T08:45:39Z</time>
      </trkpt>
      <trkpt lat="44.67883" lon="5.90956">
        <ele>1700.65</ele>
        <time>2018-08-10T08:45:40Z</time>
      </trkpt>
      <trkpt lat="44.67893" lon="5.90949">
        <ele>1699.61</ele>
        <time>2018-08-10T08:45:52Z</time>
      </trkpt>
      <trkpt lat="44.67894" lon="5.90949">
        <ele>1699.43</ele>
        <time>2018-08-10T08:45:53Z</time>
      </trkpt>
      <trkpt lat="44.67907" lon="5.90952">
        <ele>1697.58</ele>
        <time>2018-08-10T08:46:04Z</time>
      </trkpt>
      <trkpt lat="44.6791" lon="5.90955">
        <ele>1697</ele>
        <time>2018-08-10T08:46:07Z</time>
      </trkpt>
      <trkpt lat="44.67911" lon="5.90956">
        <ele>1696.77</ele>
        <time>2018-08-10T08:46:08Z</time>
      </trkpt>
      <trkpt lat="44.67925" lon="5.90971">
        <ele>1693.65</ele>
        <time>2018-08-10T08:46:23Z</time>
      </trkpt>
      <trkpt lat="44.67927" lon="5.90973">
        <ele>1692.81</ele>
        <time>2018-08-10T08:46:27Z</time>
      </trkpt>
      <trkpt lat="44.67928" lon="5.90974">
        <ele>1692.64</ele>
        <time>2018-08-10T08:46:28Z</time>
      </trkpt>
      <trkpt lat="44.67929" lon="5.90974">
        <ele>1692.41</ele>
        <time>2018-08-10T08:46:29Z</time>
      </trkpt>
      <trkpt lat="44.6793" lon="5.90975">
        <ele>1692.17</ele>
        <time>2018-08-10T08:46:30Z</time>
      </trkpt>
      <trkpt lat="44.67937" lon="5.90981">
        <ele>1690.29</ele>
        <time>2018-08-10T08:46:39Z</time>
      </trkpt>
      <trkpt lat="44.67938" lon="5.90981">
        <ele>1690.08</ele>
        <time>2018-08-10T08:46:40Z</time>
      </trkpt>
      <trkpt lat="44.67939" lon="5.9098">
        <ele>1689.89</ele>
        <time>2018-08-10T08:46:41Z</time>
      </trkpt>
      <trkpt lat="44.6794" lon="5.9098">
        <ele>1689.78</ele>
        <time>2018-08-10T08:46:42Z</time>
      </trkpt>
      <trkpt lat="44.67941" lon="5.90979">
        <ele>1689.63</ele>
        <time>2018-08-10T08:46:43Z</time>
      </trkpt>
      <trkpt lat="44.67942" lon="5.90978">
        <ele>1689.51</ele>
        <time>2018-08-10T08:46:44Z</time>
      </trkpt>
      <trkpt lat="44.67947" lon="5.90976">
        <ele>1688.79</ele>
        <time>2018-08-10T08:46:48Z</time>
      </trkpt>
      <trkpt lat="44.67948" lon="5.90975">
        <ele>1688.63</ele>
        <time>2018-08-10T08:46:49Z</time>
      </trkpt>
      <trkpt lat="44.67949" lon="5.90974">
        <ele>1688.46</ele>
        <time>2018-08-10T08:46:50Z</time>
      </trkpt>
      <trkpt lat="44.67962" lon="5.90963">
        <ele>1687.58</ele>
        <time>2018-08-10T08:47:04Z</time>
      </trkpt>
      <trkpt lat="44.67976" lon="5.9095">
        <ele>1688.45</ele>
        <time>2018-08-10T08:47:19Z</time>
      </trkpt>
      <trkpt lat="44.67991" lon="5.90948">
        <ele>1686.17</ele>
        <time>2018-08-10T08:47:35Z</time>
      </trkpt>
      <trkpt lat="44.67998" lon="5.90947">
        <ele>1684.25</ele>
        <time>2018-08-10T08:47:45Z</time>
      </trkpt>
      <trkpt lat="44.68007" lon="5.90939">
        <ele>1682.38</ele>
        <time>2018-08-10T08:47:56Z</time>
      </trkpt>
      <trkpt lat="44.68017" lon="5.9095">
        <ele>1679.52</ele>
        <time>2018-08-10T08:48:08Z</time>
      </trkpt>
      <trkpt lat="44.68026" lon="5.90967">
        <ele>1676.83</ele>
        <time>2018-08-10T08:48:25Z</time>
      </trkpt>
      <trkpt lat="44.68025" lon="5.90967">
        <ele>1676.62</ele>
        <time>2018-08-10T08:48:27Z</time>
      </trkpt>
      <trkpt lat="44.68037" lon="5.90977">
        <ele>1675.36</ele>
        <time>2018-08-10T08:48:41Z</time>
      </trkpt>
      <trkpt lat="44.6805" lon="5.9098">
        <ele>1672.68</ele>
        <time>2018-08-10T08:48:54Z</time>
      </trkpt>
      <trkpt lat="44.68059" lon="5.90996">
        <ele>1669.37</ele>
        <time>2018-08-10T08:49:07Z</time>
      </trkpt>
      <trkpt lat="44.68077" lon="5.91013">
        <ele>1666.34</ele>
        <time>2018-08-10T08:49:25Z</time>
      </trkpt>
      <trkpt lat="44.68095" lon="5.91018">
        <ele>1665.61</ele>
        <time>2018-08-10T08:49:44Z</time>
      </trkpt>
      <trkpt lat="44.68109" lon="5.9101">
        <ele>1665.51</ele>
        <time>2018-08-10T08:49:57Z</time>
      </trkpt>
      <trkpt lat="44.68125" lon="5.91008">
        <ele>1665.24</ele>
        <time>2018-08-10T08:50:09Z</time>
      </trkpt>
      <trkpt lat="44.68135" lon="5.9101">
        <ele>1663.85</ele>
        <time>2018-08-10T08:50:23Z</time>
      </trkpt>
      <trkpt lat="44.68135" lon="5.9101">
        <ele>1663.63</ele>
        <time>2018-08-10T08:50:25Z</time>
      </trkpt>
      <trkpt lat="44.68134" lon="5.91011">
        <ele>1663.61</ele>
        <time>2018-08-10T08:50:56Z</time>
      </trkpt>
      <trkpt lat="44.68139" lon="5.91014">
        <ele>1663.45</ele>
        <time>2018-08-10T08:51:11Z</time>
      </trkpt>
      <trkpt lat="44.68145" lon="5.91012">
        <ele>1663.18</ele>
        <time>2018-08-10T08:51:17Z</time>
      </trkpt>
      <trkpt lat="44.68159" lon="5.90998">
        <ele>1661.73</ele>
        <time>2018-08-10T08:51:35Z</time>
      </trkpt>
      <trkpt lat="44.68174" lon="5.90992">
        <ele>1659.94</ele>
        <time>2018-08-10T08:51:51Z</time>
      </trkpt>
      <trkpt lat="44.68195" lon="5.90997">
        <ele>1657.96</ele>
        <time>2018-08-10T08:52:10Z</time>
      </trkpt>
      <trkpt lat="44.68216" lon="5.90991">
        <ele>1656.32</ele>
        <time>2018-08-10T08:52:28Z</time>
      </trkpt>
      <trkpt lat="44.68217" lon="5.9099">
        <ele>1656.14</ele>
        <time>2018-08-10T08:52:30Z</time>
      </trkpt>
      <trkpt lat="44.68226" lon="5.90996">
        <ele>1654.73</ele>
        <time>2018-08-10T08:52:38Z</time>
      </trkpt>
      <trkpt lat="44.68235" lon="5.91012">
        <ele>1652.13</ele>
        <time>2018-08-10T08:52:50Z</time>
      </trkpt>
      <trkpt lat="44.68244" lon="5.91029">
        <ele>1649.06</ele>
        <time>2018-08-10T08:53:07Z</time>
      </trkpt>
      <trkpt lat="44.68245" lon="5.91031">
        <ele>1648.87</ele>
        <time>2018-08-10T08:53:09Z</time>
      </trkpt>
      <trkpt lat="44.68247" lon="5.91034">
        <ele>1648.69</ele>
        <time>2018-08-10T08:53:19Z</time>
      </trkpt>
      <trkpt lat="44.68244" lon="5.91024">
        <ele>1648.72</ele>
        <time>2018-08-10T08:53:25Z</time>
      </trkpt>
      <trkpt lat="44.68249" lon="5.91002">
        <ele>1647.76</ele>
        <time>2018-08-10T08:53:41Z</time>
      </trkpt>
      <trkpt lat="44.68263" lon="5.90987">
        <ele>1646.27</ele>
        <time>2018-08-10T08:53:55Z</time>
      </trkpt>
      <trkpt lat="44.68275" lon="5.90967">
        <ele>1644.78</ele>
        <time>2018-08-10T08:54:12Z</time>
      </trkpt>
      <trkpt lat="44.68283" lon="5.90943">
        <ele>1642.39</ele>
        <time>2018-08-10T08:54:29Z</time>
      </trkpt>
      <trkpt lat="44.68283" lon="5.9093">
        <ele>1640.14</ele>
        <time>2018-08-10T08:54:42Z</time>
      </trkpt>
      <trkpt lat="44.6828" lon="5.90923">
        <ele>1639.39</ele>
        <time>2018-08-10T08:54:46Z</time>
      </trkpt>
      <trkpt lat="44.68274" lon="5.90903">
        <ele>1637.68</ele>
        <time>2018-08-10T08:54:59Z</time>
      </trkpt>
      <trkpt lat="44.68275" lon="5.90901">
        <ele>1637.16</ele>
        <time>2018-08-10T08:55:02Z</time>
      </trkpt>
      <trkpt lat="44.68273" lon="5.90893">
        <ele>1636.65</ele>
        <time>2018-08-10T08:55:07Z</time>
      </trkpt>
      <trkpt lat="44.68273" lon="5.90885">
        <ele>1636.06</ele>
        <time>2018-08-10T08:55:12Z</time>
      </trkpt>
      <trkpt lat="44.6827" lon="5.90876">
        <ele>1635.07</ele>
        <time>2018-08-10T08:55:20Z</time>
      </trkpt>
      <trkpt lat="44.68264" lon="5.90855">
        <ele>1633.18</ele>
        <time>2018-08-10T08:55:36Z</time>
      </trkpt>
      <trkpt lat="44.68258" lon="5.9083">
        <ele>1630.63</ele>
        <time>2018-08-10T08:55:54Z</time>
      </trkpt>
      <trkpt lat="44.68248" lon="5.90793">
        <ele>1629.57</ele>
        <time>2018-08-10T08:56:18Z</time>
      </trkpt>
      <trkpt lat="44.68245" lon="5.90778">
        <ele>1629.38</ele>
        <time>2018-08-10T08:56:32Z</time>
      </trkpt>
      <trkpt lat="44.68244" lon="5.9077">
        <ele>1629.16</ele>
        <time>2018-08-10T08:56:51Z</time>
      </trkpt>
      <trkpt lat="44.68244" lon="5.90765">
        <ele>1629.12</ele>
        <time>2018-08-10T08:56:55Z</time>
      </trkpt>
      <trkpt lat="44.68238" lon="5.9073">
        <ele>1627.17</ele>
        <time>2018-08-10T08:57:16Z</time>
      </trkpt>
      <trkpt lat="44.68237" lon="5.90727">
        <ele>1626.78</ele>
        <time>2018-08-10T08:57:18Z</time>
      </trkpt>
      <trkpt lat="44.68234" lon="5.90706">
        <ele>1625.17</ele>
        <time>2018-08-10T08:57:30Z</time>
      </trkpt>
      <trkpt lat="44.68232" lon="5.90692">
        <ele>1624.52</ele>
        <time>2018-08-10T08:57:40Z</time>
      </trkpt>
      <trkpt lat="44.6823" lon="5.90672">
        <ele>1623.36</ele>
        <time>2018-08-10T08:57:51Z</time>
      </trkpt>
      <trkpt lat="44.6823" lon="5.90661">
        <ele>1622.5</ele>
        <time>2018-08-10T08:57:59Z</time>
      </trkpt>
      <trkpt lat="44.68229" lon="5.90624">
        <ele>1621.77</ele>
        <time>2018-08-10T08:58:21Z</time>
      </trkpt>
      <trkpt lat="44.68229" lon="5.90623">
        <ele>1621.73</ele>
        <time>2018-08-10T08:58:22Z</time>
      </trkpt>
      <trkpt lat="44.68229" lon="5.90604">
        <ele>1621.69</ele>
        <time>2018-08-10T08:58:32Z</time>
      </trkpt>
      <trkpt lat="44.68229" lon="5.90601">
        <ele>1621.71</ele>
        <time>2018-08-10T08:58:34Z</time>
      </trkpt>
      <trkpt lat="44.68231" lon="5.90578">
        <ele>1621.94</ele>
        <time>2018-08-10T08:58:48Z</time>
      </trkpt>
      <trkpt lat="44.68231" lon="5.90575">
        <ele>1621.9</ele>
        <time>2018-08-10T08:58:50Z</time>
      </trkpt>
      <trkpt lat="44.68231" lon="5.9057">
        <ele>1620.97</ele>
        <time>2018-08-10T08:59:06Z</time>
      </trkpt>
      <trkpt lat="44.68244" lon="5.90558">
        <ele>1620.03</ele>
        <time>2018-08-10T08:59:25Z</time>
      </trkpt>
      <trkpt lat="44.68257" lon="5.90549">
        <ele>1617.79</ele>
        <time>2018-08-10T08:59:38Z</time>
      </trkpt>
      <trkpt lat="44.68274" lon="5.90545">
        <ele>1614.76</ele>
        <time>2018-08-10T08:59:56Z</time>
      </trkpt>
      <trkpt lat="44.68284" lon="5.90525">
        <ele>1611.74</ele>
        <time>2018-08-10T09:00:11Z</time>
      </trkpt>
      <trkpt lat="44.68286" lon="5.90523">
        <ele>1611.32</ele>
        <time>2018-08-10T09:00:15Z</time>
      </trkpt>
      <trkpt lat="44.6829" lon="5.9052">
        <ele>1610.72</ele>
        <time>2018-08-10T09:00:19Z</time>
      </trkpt>
      <trkpt lat="44.68302" lon="5.905">
        <ele>1607.56</ele>
        <time>2018-08-10T09:00:37Z</time>
      </trkpt>
      <trkpt lat="44.68316" lon="5.90477">
        <ele>1605.59</ele>
        <time>2018-08-10T09:00:55Z</time>
      </trkpt>
      <trkpt lat="44.68331" lon="5.90464">
        <ele>1604.9</ele>
        <time>2018-08-10T09:01:12Z</time>
      </trkpt>
      <trkpt lat="44.68345" lon="5.90458">
        <ele>1603.77</ele>
        <time>2018-08-10T09:01:24Z</time>
      </trkpt>
      <trkpt lat="44.68356" lon="5.90455">
        <ele>1602.06</ele>
        <time>2018-08-10T09:01:37Z</time>
      </trkpt>
      <trkpt lat="44.68361" lon="5.90454">
        <ele>1601.84</ele>
        <time>2018-08-10T09:01:41Z</time>
      </trkpt>
      <trkpt lat="44.68382" lon="5.90445">
        <ele>1600.3</ele>
        <time>2018-08-10T09:01:59Z</time>
      </trkpt>
      <trkpt lat="44.68395" lon="5.90441">
        <ele>1597.65</ele>
        <time>2018-08-10T09:02:14Z</time>
      </trkpt>
      <trkpt lat="44.68405" lon="5.90439">
        <ele>1596.52</ele>
        <time>2018-08-10T09:02:21Z</time>
      </trkpt>
      <trkpt lat="44.68417" lon="5.90442">
        <ele>1594.87</ele>
        <time>2018-08-10T09:02:33Z</time>
      </trkpt>
      <trkpt lat="44.68422" lon="5.90443">
        <ele>1594.3</ele>
        <time>2018-08-10T09:02:39Z</time>
      </trkpt>
      <trkpt lat="44.68436" lon="5.90444">
        <ele>1591.64</ele>
        <time>2018-08-10T09:02:57Z</time>
      </trkpt>
      <trkpt lat="44.68453" lon="5.9044">
        <ele>1588.5</ele>
        <time>2018-08-10T09:03:16Z</time>
      </trkpt>
      <trkpt lat="44.68459" lon="5.90444">
        <ele>1586.87</ele>
        <time>2018-08-10T09:03:25Z</time>
      </trkpt>
      <trkpt lat="44.68462" lon="5.90444">
        <ele>1585.31</ele>
        <time>2018-08-10T09:03:35Z</time>
      </trkpt>
      <trkpt lat="44.68468" lon="5.9045">
        <ele>1584.47</ele>
        <time>2018-08-10T09:03:55Z</time>
      </trkpt>
      <trkpt lat="44.68479" lon="5.90453">
        <ele>1581.4</ele>
        <time>2018-08-10T09:04:15Z</time>
      </trkpt>
      <trkpt lat="44.68487" lon="5.9045">
        <ele>1578.99</ele>
        <time>2018-08-10T09:04:30Z</time>
      </trkpt>
      <trkpt lat="44.68494" lon="5.90454">
        <ele>1577.36</ele>
        <time>2018-08-10T09:04:47Z</time>
      </trkpt>
      <trkpt lat="44.68504" lon="5.90452">
        <ele>1574.08</ele>
        <time>2018-08-10T09:05:01Z</time>
      </trkpt>
      <trkpt lat="44.68514" lon="5.90453">
        <ele>1571.06</ele>
        <time>2018-08-10T09:05:18Z</time>
      </trkpt>
      <trkpt lat="44.68516" lon="5.90448">
        <ele>1569.01</ele>
        <time>2018-08-10T09:05:35Z</time>
      </trkpt>
      <trkpt lat="44.68518" lon="5.90446">
        <ele>1568.29</ele>
        <time>2018-08-10T09:06:13Z</time>
      </trkpt>
      <trkpt lat="44.6853" lon="5.90444">
        <ele>1566.44</ele>
        <time>2018-08-10T09:06:26Z</time>
      </trkpt>
      <trkpt lat="44.68531" lon="5.90443">
        <ele>1566.24</ele>
        <time>2018-08-10T09:06:27Z</time>
      </trkpt>
      <trkpt lat="44.68542" lon="5.90434">
        <ele>1563.04</ele>
        <time>2018-08-10T09:06:40Z</time>
      </trkpt>
      <trkpt lat="44.68545" lon="5.90434">
        <ele>1562.08</ele>
        <time>2018-08-10T09:06:43Z</time>
      </trkpt>
      <trkpt lat="44.68552" lon="5.9043">
        <ele>1560.24</ele>
        <time>2018-08-10T09:06:53Z</time>
      </trkpt>
      <trkpt lat="44.68555" lon="5.90435">
        <ele>1557.01</ele>
        <time>2018-08-10T09:07:07Z</time>
      </trkpt>
      <trkpt lat="44.68558" lon="5.9043">
        <ele>1556.66</ele>
        <time>2018-08-10T09:07:21Z</time>
      </trkpt>
      <trkpt lat="44.68557" lon="5.90428">
        <ele>1556.51</ele>
        <time>2018-08-10T09:07:25Z</time>
      </trkpt>
      <trkpt lat="44.68572" lon="5.90424">
        <ele>1554.95</ele>
        <time>2018-08-10T09:07:40Z</time>
      </trkpt>
      <trkpt lat="44.68577" lon="5.90422">
        <ele>1553.11</ele>
        <time>2018-08-10T09:07:54Z</time>
      </trkpt>
      <trkpt lat="44.68582" lon="5.90421">
        <ele>1552.93</ele>
        <time>2018-08-10T09:08:00Z</time>
      </trkpt>
      <trkpt lat="44.68589" lon="5.90418">
        <ele>1551.82</ele>
        <time>2018-08-10T09:08:08Z</time>
      </trkpt>
      <trkpt lat="44.68609" lon="5.90415">
        <ele>1550.63</ele>
        <time>2018-08-10T09:08:25Z</time>
      </trkpt>
      <trkpt lat="44.68627" lon="5.90411">
        <ele>1549.11</ele>
        <time>2018-08-10T09:08:41Z</time>
      </trkpt>
      <trkpt lat="44.68628" lon="5.90411">
        <ele>1548.82</ele>
        <time>2018-08-10T09:08:42Z</time>
      </trkpt>
      <trkpt lat="44.68632" lon="5.90403">
        <ele>1548.01</ele>
        <time>2018-08-10T09:08:49Z</time>
      </trkpt>
      <trkpt lat="44.68631" lon="5.904">
        <ele>1547.82</ele>
        <time>2018-08-10T09:08:51Z</time>
      </trkpt>
      <trkpt lat="44.68616" lon="5.90389">
        <ele>1546.58</ele>
        <time>2018-08-10T09:09:05Z</time>
      </trkpt>
      <trkpt lat="44.68612" lon="5.90386">
        <ele>1546.24</ele>
        <time>2018-08-10T09:09:09Z</time>
      </trkpt>
      <trkpt lat="44.68603" lon="5.9038">
        <ele>1545.59</ele>
        <time>2018-08-10T09:09:18Z</time>
      </trkpt>
      <trkpt lat="44.68601" lon="5.90378">
        <ele>1545.36</ele>
        <time>2018-08-10T09:09:20Z</time>
      </trkpt>
      <trkpt lat="44.68587" lon="5.90369">
        <ele>1544.06</ele>
        <time>2018-08-10T09:09:33Z</time>
      </trkpt>
      <trkpt lat="44.68581" lon="5.90366">
        <ele>1543.49</ele>
        <time>2018-08-10T09:09:39Z</time>
      </trkpt>
      <trkpt lat="44.68577" lon="5.90366">
        <ele>1543.03</ele>
        <time>2018-08-10T09:09:43Z</time>
      </trkpt>
      <trkpt lat="44.68564" lon="5.90348">
        <ele>1540.57</ele>
        <time>2018-08-10T09:10:00Z</time>
      </trkpt>
      <trkpt lat="44.68552" lon="5.9033">
        <ele>1537.45</ele>
        <time>2018-08-10T09:10:18Z</time>
      </trkpt>
      <trkpt lat="44.68535" lon="5.90317">
        <ele>1534.58</ele>
        <time>2018-08-10T09:10:38Z</time>
      </trkpt>
      <trkpt lat="44.68529" lon="5.90306">
        <ele>1533.95</ele>
        <time>2018-08-10T09:11:01Z</time>
      </trkpt>
      <trkpt lat="44.68505" lon="5.90288">
        <ele>1531.45</ele>
        <time>2018-08-10T09:11:26Z</time>
      </trkpt>
      <trkpt lat="44.68483" lon="5.90266">
        <ele>1528.41</ele>
        <time>2018-08-10T09:11:48Z</time>
      </trkpt>
      <trkpt lat="44.68454" lon="5.90252">
        <ele>1525.36</ele>
        <time>2018-08-10T09:12:13Z</time>
      </trkpt>
      <trkpt lat="44.68434" lon="5.90238">
        <ele>1523.81</ele>
        <time>2018-08-10T09:12:31Z</time>
      </trkpt>
      <trkpt lat="44.68423" lon="5.90226">
        <ele>1522.37</ele>
        <time>2018-08-10T09:12:44Z</time>
      </trkpt>
      <trkpt lat="44.68417" lon="5.90213">
        <ele>1521.38</ele>
        <time>2018-08-10T09:12:54Z</time>
      </trkpt>
      <trkpt lat="44.68419" lon="5.90198">
        <ele>1521.11</ele>
        <time>2018-08-10T09:13:03Z</time>
      </trkpt>
      <trkpt lat="44.68416" lon="5.90193">
        <ele>1520.94</ele>
        <time>2018-08-10T09:13:07Z</time>
      </trkpt>
      <trkpt lat="44.68415" lon="5.90174">
        <ele>1520.21</ele>
        <time>2018-08-10T09:13:22Z</time>
      </trkpt>
      <trkpt lat="44.68417" lon="5.90172">
        <ele>1519.99</ele>
        <time>2018-08-10T09:13:54Z</time>
      </trkpt>
      <trkpt lat="44.68413" lon="5.90149">
        <ele>1518.71</ele>
        <time>2018-08-10T09:14:08Z</time>
      </trkpt>
      <trkpt lat="44.68415" lon="5.90127">
        <ele>1517.74</ele>
        <time>2018-08-10T09:14:21Z</time>
      </trkpt>
      <trkpt lat="44.68415" lon="5.90125">
        <ele>1517.71</ele>
        <time>2018-08-10T09:14:22Z</time>
      </trkpt>
      <trkpt lat="44.68412" lon="5.90115">
        <ele>1517.44</ele>
        <time>2018-08-10T09:14:28Z</time>
      </trkpt>
      <trkpt lat="44.6841" lon="5.90096">
        <ele>1517.39</ele>
        <time>2018-08-10T09:14:40Z</time>
      </trkpt>
      <trkpt lat="44.68409" lon="5.90091">
        <ele>1517.38</ele>
        <time>2018-08-10T09:14:43Z</time>
      </trkpt>
      <trkpt lat="44.68406" lon="5.90076">
        <ele>1516.93</ele>
        <time>2018-08-10T09:14:59Z</time>
      </trkpt>
      <trkpt lat="44.68398" lon="5.90054">
        <ele>1516.49</ele>
        <time>2018-08-10T09:15:12Z</time>
      </trkpt>
      <trkpt lat="44.6839" lon="5.90036">
        <ele>1515.67</ele>
        <time>2018-08-10T09:15:25Z</time>
      </trkpt>
      <trkpt lat="44.68386" lon="5.90031">
        <ele>1515.48</ele>
        <time>2018-08-10T09:15:29Z</time>
      </trkpt>
      <trkpt lat="44.6838" lon="5.90015">
        <ele>1514.51</ele>
        <time>2018-08-10T09:15:39Z</time>
      </trkpt>
      <trkpt lat="44.68377" lon="5.9">
        <ele>1513.48</ele>
        <time>2018-08-10T09:15:47Z</time>
      </trkpt>
      <trkpt lat="44.68377" lon="5.89984">
        <ele>1512.71</ele>
        <time>2018-08-10T09:15:56Z</time>
      </trkpt>
      <trkpt lat="44.68383" lon="5.89969">
        <ele>1512.07</ele>
        <time>2018-08-10T09:16:05Z</time>
      </trkpt>
      <trkpt lat="44.68384" lon="5.89962">
        <ele>1511.94</ele>
        <time>2018-08-10T09:16:10Z</time>
      </trkpt>
      <trkpt lat="44.68392" lon="5.89956">
        <ele>1511.75</ele>
        <time>2018-08-10T09:16:18Z</time>
      </trkpt>
      <trkpt lat="44.68395" lon="5.89951">
        <ele>1511.94</ele>
        <time>2018-08-10T09:16:36Z</time>
      </trkpt>
      <trkpt lat="44.68397" lon="5.89946">
        <ele>1511.94</ele>
        <time>2018-08-10T09:16:39Z</time>
      </trkpt>
      <trkpt lat="44.68397" lon="5.89943">
        <ele>1511.92</ele>
        <time>2018-08-10T09:16:41Z</time>
      </trkpt>
      <trkpt lat="44.68405" lon="5.89919">
        <ele>1511.64</ele>
        <time>2018-08-10T09:16:56Z</time>
      </trkpt>
      <trkpt lat="44.68415" lon="5.89897">
        <ele>1512.01</ele>
        <time>2018-08-10T09:17:12Z</time>
      </trkpt>
      <trkpt lat="44.68421" lon="5.89882">
        <ele>1512.11</ele>
        <time>2018-08-10T09:17:22Z</time>
      </trkpt>
      <trkpt lat="44.68433" lon="5.89855">
        <ele>1512.05</ele>
        <time>2018-08-10T09:17:41Z</time>
      </trkpt>
      <trkpt lat="44.6844" lon="5.89843">
        <ele>1511.58</ele>
        <time>2018-08-10T09:17:58Z</time>
      </trkpt>
      <trkpt lat="44.68441" lon="5.89842">
        <ele>1511.58</ele>
        <time>2018-08-10T09:17:59Z</time>
      </trkpt>
      <trkpt lat="44.68445" lon="5.89836">
        <ele>1511.54</ele>
        <time>2018-08-10T09:18:04Z</time>
      </trkpt>
      <trkpt lat="44.68452" lon="5.89823">
        <ele>1511.29</ele>
        <time>2018-08-10T09:18:18Z</time>
      </trkpt>
      <trkpt lat="44.68465" lon="5.89811">
        <ele>1511.16</ele>
        <time>2018-08-10T09:18:35Z</time>
      </trkpt>
      <trkpt lat="44.68474" lon="5.89801">
        <ele>1510.87</ele>
        <time>2018-08-10T09:18:45Z</time>
      </trkpt>
      <trkpt lat="44.68487" lon="5.89793">
        <ele>1510.32</ele>
        <time>2018-08-10T09:18:59Z</time>
      </trkpt>
      <trkpt lat="44.68491" lon="5.89791">
        <ele>1510.2</ele>
        <time>2018-08-10T09:19:04Z</time>
      </trkpt>
      <trkpt lat="44.68502" lon="5.89785">
        <ele>1509.8</ele>
        <time>2018-08-10T09:19:16Z</time>
      </trkpt>
      <trkpt lat="44.68522" lon="5.89778">
        <ele>1509.1</ele>
        <time>2018-08-10T09:19:35Z</time>
      </trkpt>
      <trkpt lat="44.68524" lon="5.89777">
        <ele>1509.08</ele>
        <time>2018-08-10T09:19:36Z</time>
      </trkpt>
      <trkpt lat="44.68538" lon="5.89769">
        <ele>1508.11</ele>
        <time>2018-08-10T09:19:54Z</time>
      </trkpt>
      <trkpt lat="44.68542" lon="5.89764">
        <ele>1507.91</ele>
        <time>2018-08-10T09:20:00Z</time>
      </trkpt>
      <trkpt lat="44.68547" lon="5.89755">
        <ele>1507.71</ele>
        <time>2018-08-10T09:20:07Z</time>
      </trkpt>
      <trkpt lat="44.68553" lon="5.89727">
        <ele>1506.98</ele>
        <time>2018-08-10T09:20:25Z</time>
      </trkpt>
      <trkpt lat="44.6856" lon="5.89713">
        <ele>1506.13</ele>
        <time>2018-08-10T09:20:38Z</time>
      </trkpt>
      <trkpt lat="44.68565" lon="5.89695">
        <ele>1505.33</ele>
        <time>2018-08-10T09:20:50Z</time>
      </trkpt>
      <trkpt lat="44.6857" lon="5.89682">
        <ele>1503.93</ele>
        <time>2018-08-10T09:21:03Z</time>
      </trkpt>
      <trkpt lat="44.68576" lon="5.89665">
        <ele>1502.28</ele>
        <time>2018-08-10T09:21:20Z</time>
      </trkpt>
      <trkpt lat="44.68577" lon="5.89662">
        <ele>1501.81</ele>
        <time>2018-08-10T09:21:22Z</time>
      </trkpt>
      <trkpt lat="44.68586" lon="5.89641">
        <ele>1499.72</ele>
        <time>2018-08-10T09:21:40Z</time>
      </trkpt>
      <trkpt lat="44.68595" lon="5.8962">
        <ele>1497.38</ele>
        <time>2018-08-10T09:21:56Z</time>
      </trkpt>
      <trkpt lat="44.68606" lon="5.89599">
        <ele>1494.7</ele>
        <time>2018-08-10T09:22:12Z</time>
      </trkpt>
      <trkpt lat="44.68611" lon="5.8959">
        <ele>1493.87</ele>
        <time>2018-08-10T09:22:20Z</time>
      </trkpt>
      <trkpt lat="44.68613" lon="5.89588">
        <ele>1493.52</ele>
        <time>2018-08-10T09:22:22Z</time>
      </trkpt>
      <trkpt lat="44.68617" lon="5.89586">
        <ele>1490.78</ele>
        <time>2018-08-10T09:22:44Z</time>
      </trkpt>
      <trkpt lat="44.68625" lon="5.89574">
        <ele>1490.29</ele>
        <time>2018-08-10T09:22:58Z</time>
      </trkpt>
      <trkpt lat="44.68627" lon="5.89572">
        <ele>1489.56</ele>
        <time>2018-08-10T09:23:01Z</time>
      </trkpt>
      <trkpt lat="44.6863" lon="5.89563">
        <ele>1487.89</ele>
        <time>2018-08-10T09:23:14Z</time>
      </trkpt>
      <trkpt lat="44.68644" lon="5.89545">
        <ele>1486.85</ele>
        <time>2018-08-10T09:23:30Z</time>
      </trkpt>
      <trkpt lat="44.68656" lon="5.89531">
        <ele>1485.44</ele>
        <time>2018-08-10T09:23:44Z</time>
      </trkpt>
      <trkpt lat="44.6867" lon="5.89532">
        <ele>1483.38</ele>
        <time>2018-08-10T09:24:01Z</time>
      </trkpt>
      <trkpt lat="44.6868" lon="5.89534">
        <ele>1481.94</ele>
        <time>2018-08-10T09:24:10Z</time>
      </trkpt>
      <trkpt lat="44.68695" lon="5.89535">
        <ele>1479.26</ele>
        <time>2018-08-10T09:24:24Z</time>
      </trkpt>
      <trkpt lat="44.687" lon="5.89525">
        <ele>1477.04</ele>
        <time>2018-08-10T09:24:37Z</time>
      </trkpt>
      <trkpt lat="44.68703" lon="5.89504">
        <ele>1474.1</ele>
        <time>2018-08-10T09:24:55Z</time>
      </trkpt>
      <trkpt lat="44.6871" lon="5.89492">
        <ele>1471.07</ele>
        <time>2018-08-10T09:25:09Z</time>
      </trkpt>
      <trkpt lat="44.68716" lon="5.89482">
        <ele>1467.96</ele>
        <time>2018-08-10T09:25:22Z</time>
      </trkpt>
      <trkpt lat="44.68719" lon="5.89475">
        <ele>1465.79</ele>
        <time>2018-08-10T09:25:30Z</time>
      </trkpt>
      <trkpt lat="44.68723" lon="5.89453">
        <ele>1463.34</ele>
        <time>2018-08-10T09:25:44Z</time>
      </trkpt>
      <trkpt lat="44.6872" lon="5.89429">
        <ele>1461.29</ele>
        <time>2018-08-10T09:26:00Z</time>
      </trkpt>
      <trkpt lat="44.68718" lon="5.89419">
        <ele>1459.76</ele>
        <time>2018-08-10T09:26:17Z</time>
      </trkpt>
      <trkpt lat="44.68719" lon="5.8942">
        <ele>1459.81</ele>
        <time>2018-08-10T09:26:52Z</time>
      </trkpt>
      <trkpt lat="44.68718" lon="5.89412">
        <ele>1459.86</ele>
        <time>2018-08-10T09:27:21Z</time>
      </trkpt>
      <trkpt lat="44.68716" lon="5.89398">
        <ele>1459.29</ele>
        <time>2018-08-10T09:27:34Z</time>
      </trkpt>
      <trkpt lat="44.68708" lon="5.89379">
        <ele>1456.99</ele>
        <time>2018-08-10T09:27:51Z</time>
      </trkpt>
      <trkpt lat="44.6871" lon="5.89365">
        <ele>1454.51</ele>
        <time>2018-08-10T09:28:06Z</time>
      </trkpt>
      <trkpt lat="44.6871" lon="5.89362">
        <ele>1453.21</ele>
        <time>2018-08-10T09:28:24Z</time>
      </trkpt>
      <trkpt lat="44.68713" lon="5.89357">
        <ele>1453.14</ele>
        <time>2018-08-10T09:28:44Z</time>
      </trkpt>
      <trkpt lat="44.68712" lon="5.89352">
        <ele>1453.01</ele>
        <time>2018-08-10T09:28:49Z</time>
      </trkpt>
      <trkpt lat="44.6871" lon="5.89339">
        <ele>1451.97</ele>
        <time>2018-08-10T09:28:58Z</time>
      </trkpt>
      <trkpt lat="44.6871" lon="5.89334">
        <ele>1451.45</ele>
        <time>2018-08-10T09:29:01Z</time>
      </trkpt>
      <trkpt lat="44.68705" lon="5.89308">
        <ele>1450.13</ele>
        <time>2018-08-10T09:29:19Z</time>
      </trkpt>
      <trkpt lat="44.68704" lon="5.89297">
        <ele>1449.86</ele>
        <time>2018-08-10T09:29:27Z</time>
      </trkpt>
      <trkpt lat="44.68709" lon="5.89289">
        <ele>1449.56</ele>
        <time>2018-08-10T09:29:34Z</time>
      </trkpt>
      <trkpt lat="44.68714" lon="5.8928">
        <ele>1449.12</ele>
        <time>2018-08-10T09:29:41Z</time>
      </trkpt>
      <trkpt lat="44.68725" lon="5.89267">
        <ele>1448.72</ele>
        <time>2018-08-10T09:29:54Z</time>
      </trkpt>
      <trkpt lat="44.68731" lon="5.89261">
        <ele>1448.17</ele>
        <time>2018-08-10T09:30:12Z</time>
      </trkpt>
      <trkpt lat="44.68743" lon="5.89235">
        <ele>1447.55</ele>
        <time>2018-08-10T09:30:31Z</time>
      </trkpt>
      <trkpt lat="44.68753" lon="5.89219">
        <ele>1447.81</ele>
        <time>2018-08-10T09:30:45Z</time>
      </trkpt>
      <trkpt lat="44.68759" lon="5.89196">
        <ele>1448.04</ele>
        <time>2018-08-10T09:30:59Z</time>
      </trkpt>
      <trkpt lat="44.68759" lon="5.89179">
        <ele>1448.21</ele>
        <time>2018-08-10T09:31:12Z</time>
      </trkpt>
      <trkpt lat="44.68766" lon="5.89177">
        <ele>1448.23</ele>
        <time>2018-08-10T09:31:26Z</time>
      </trkpt>
      <trkpt lat="44.6877" lon="5.89172">
        <ele>1447.19</ele>
        <time>2018-08-10T09:31:44Z</time>
      </trkpt>
      <trkpt lat="44.68799" lon="5.89155">
        <ele>1446.21</ele>
        <time>2018-08-10T09:32:01Z</time>
      </trkpt>
      <trkpt lat="44.6881" lon="5.89149">
        <ele>1446.33</ele>
        <time>2018-08-10T09:32:18Z</time>
      </trkpt>
      <trkpt lat="44.68819" lon="5.89144">
        <ele>1446.33</ele>
        <time>2018-08-10T09:32:28Z</time>
      </trkpt>
      <trkpt lat="44.68833" lon="5.89142">
        <ele>1446.49</ele>
        <time>2018-08-10T09:32:45Z</time>
      </trkpt>
      <trkpt lat="44.68845" lon="5.89153">
        <ele>1446.2</ele>
        <time>2018-08-10T09:32:59Z</time>
      </trkpt>
      <trkpt lat="44.68846" lon="5.89153">
        <ele>1446.17</ele>
        <time>2018-08-10T09:33:00Z</time>
      </trkpt>
      <trkpt lat="44.68849" lon="5.89155">
        <ele>1446.09</ele>
        <time>2018-08-10T09:33:03Z</time>
      </trkpt>
      <trkpt lat="44.68853" lon="5.89167">
        <ele>1446.06</ele>
        <time>2018-08-10T09:33:17Z</time>
      </trkpt>
      <trkpt lat="44.68856" lon="5.89179">
        <ele>1445.93</ele>
        <time>2018-08-10T09:33:32Z</time>
      </trkpt>
      <trkpt lat="44.68871" lon="5.89182">
        <ele>1444.38</ele>
        <time>2018-08-10T09:33:49Z</time>
      </trkpt>
      <trkpt lat="44.68873" lon="5.89201">
        <ele>1442.85</ele>
        <time>2018-08-10T09:34:05Z</time>
      </trkpt>
      <trkpt lat="44.68873" lon="5.89212">
        <ele>1443.57</ele>
        <time>2018-08-10T09:34:39Z</time>
      </trkpt>
      <trkpt lat="44.68875" lon="5.89219">
        <ele>1443.23</ele>
        <time>2018-08-10T09:34:56Z</time>
      </trkpt>
      <trkpt lat="44.68868" lon="5.89219">
        <ele>1443.41</ele>
        <time>2018-08-10T09:36:02Z</time>
      </trkpt>
      <trkpt lat="44.68882" lon="5.89239">
        <ele>1443.3</ele>
        <time>2018-08-10T09:36:16Z</time>
      </trkpt>
      <trkpt lat="44.68893" lon="5.89259">
        <ele>1443.79</ele>
        <time>2018-08-10T09:36:35Z</time>
      </trkpt>
      <trkpt lat="44.68898" lon="5.89272">
        <ele>1444.01</ele>
        <time>2018-08-10T09:36:51Z</time>
      </trkpt>
      <trkpt lat="44.68902" lon="5.89285">
        <ele>1443.88</ele>
        <time>2018-08-10T09:37:02Z</time>
      </trkpt>
      <trkpt lat="44.68909" lon="5.89303">
        <ele>1444.08</ele>
        <time>2018-08-10T09:37:21Z</time>
      </trkpt>
      <trkpt lat="44.68917" lon="5.89331">
        <ele>1444.19</ele>
        <time>2018-08-10T09:37:43Z</time>
      </trkpt>
      <trkpt lat="44.68919" lon="5.89333">
        <ele>1444.19</ele>
        <time>2018-08-10T09:37:45Z</time>
      </trkpt>
      <trkpt lat="44.68927" lon="5.8936">
        <ele>1444.23</ele>
        <time>2018-08-10T09:38:07Z</time>
      </trkpt>
      <trkpt lat="44.68933" lon="5.89363">
        <ele>1444.32</ele>
        <time>2018-08-10T09:38:47Z</time>
      </trkpt>
      <trkpt lat="44.68931" lon="5.89361">
        <ele>1444.31</ele>
        <time>2018-08-10T09:39:14Z</time>
      </trkpt>
      <trkpt lat="44.68928" lon="5.8936">
        <ele>1444.28</ele>
        <time>2018-08-10T09:39:25Z</time>
      </trkpt>
      <trkpt lat="44.68925" lon="5.89365">
        <ele>1444.13</ele>
        <time>2018-08-10T09:39:40Z</time>
      </trkpt>
    </trkseg>
  </trk>
</gpx>